<?xml version="1.0" encoding="UTF-8" standalone="no" ?>
<gpx xmlns="http://www.topografix.com/GPX/1/1" xmlns:xsi="http://www.w3.org/2001/XMLSchema-instance" xsi:schemaLocation="http://www.topografix.com/GPX/1/1 http://www.topografix.com/GPX/1/1/gpx.xsd" version="1.1" creator="VisuGPX - https://www.visugpx.com">
  <metadata>
    <name>Verdelais/abbaye du Rivet via Pian-sur-Garonne et St-Martin-de-Sescas</name>
    <desc><![CDATA[marche en ligne de la basilique de Verdelais vers l'abbaye du Rivet]]></desc>
  </metadata>
  <trk>
    <name><![CDATA[mdp_Verdelais_Rivet_reco]]></name>
    <trkseg>
      <trkpt lat="44.58865" lon="-0.24938">
        <ele>63.5843506</ele>
        <time>2017-03-13T08:30:23Z</time>
      </trkpt>
      <trkpt lat="44.58843" lon="-0.24943">
        <ele>63.5843506</ele>
        <time>2017-03-13T08:30:42Z</time>
      </trkpt>
      <trkpt lat="44.5884" lon="-0.2494">
        <ele>64.5456543</ele>
        <time>2017-03-13T08:30:45Z</time>
      </trkpt>
      <trkpt lat="44.58822" lon="-0.24932">
        <ele>32.4609375</ele>
      </trkpt>
      <trkpt lat="44.58823" lon="-0.24892">
        <ele>30.8359375</ele>
      </trkpt>
      <trkpt lat="44.58819" lon="-0.24854">
        <ele>28.9179688</ele>
      </trkpt>
      <trkpt lat="44.58813" lon="-0.24823">
        <ele>27.2304688</ele>
      </trkpt>
      <trkpt lat="44.58807" lon="-0.24802">
        <ele>26.7304688</ele>
      </trkpt>
      <trkpt lat="44.58799" lon="-0.24765">
        <ele>64.5456543</ele>
        <time>2017-03-13T08:32:43Z</time>
      </trkpt>
      <trkpt lat="44.58784" lon="-0.24715">
        <ele>65.5070801</ele>
        <time>2017-03-13T08:33:17Z</time>
      </trkpt>
      <trkpt lat="44.5879" lon="-0.24682">
        <ele>66.9489746</ele>
        <time>2017-03-13T08:33:36Z</time>
      </trkpt>
      <trkpt lat="44.58794" lon="-0.24607">
        <ele>68.871582</ele>
        <time>2017-03-13T08:34:23Z</time>
      </trkpt>
      <trkpt lat="44.5879" lon="-0.24574">
        <ele>68.3908691</ele>
        <time>2017-03-13T08:34:43Z</time>
      </trkpt>
      <trkpt lat="44.58788" lon="-0.2456">
        <ele>67.9102783</ele>
        <time>2017-03-13T08:34:52Z</time>
      </trkpt>
      <trkpt lat="44.58787" lon="-0.24553">
        <ele>68.871582</ele>
        <time>2017-03-13T08:34:56Z</time>
      </trkpt>
      <trkpt lat="44.58785" lon="-0.24516">
        <ele>68.3908691</ele>
        <time>2017-03-13T08:35:19Z</time>
      </trkpt>
      <trkpt lat="44.58782" lon="-0.24483">
        <ele>68.871582</ele>
        <time>2017-03-13T08:35:39Z</time>
      </trkpt>
      <trkpt lat="44.58781" lon="-0.2445">
        <ele>69.8328857</ele>
        <time>2017-03-13T08:35:59Z</time>
      </trkpt>
      <trkpt lat="44.58781" lon="-0.24433">
        <ele>70.3134766</ele>
        <time>2017-03-13T08:36:09Z</time>
      </trkpt>
      <trkpt lat="44.58781" lon="-0.24426">
        <ele>70.7941895</ele>
        <time>2017-03-13T08:36:13Z</time>
      </trkpt>
      <trkpt lat="44.58778" lon="-0.24396">
        <ele>70.7941895</ele>
        <time>2017-03-13T08:36:31Z</time>
      </trkpt>
      <trkpt lat="44.58777" lon="-0.24379">
        <ele>71.2749023</ele>
        <time>2017-03-13T08:36:41Z</time>
      </trkpt>
      <trkpt lat="44.58775" lon="-0.24362">
        <ele>71.7554932</ele>
        <time>2017-03-13T08:36:51Z</time>
      </trkpt>
      <trkpt lat="44.58775" lon="-0.24355">
        <ele>71.7554932</ele>
        <time>2017-03-13T08:36:55Z</time>
      </trkpt>
      <trkpt lat="44.58774" lon="-0.2433">
        <ele>71.2749023</ele>
        <time>2017-03-13T08:37:10Z</time>
      </trkpt>
      <trkpt lat="44.5877" lon="-0.24314">
        <ele>72.2362061</ele>
        <time>2017-03-13T08:37:20Z</time>
      </trkpt>
      <trkpt lat="44.58769" lon="-0.24312">
        <ele>72.7169189</ele>
        <time>2017-03-13T08:37:22Z</time>
      </trkpt>
      <trkpt lat="44.58769" lon="-0.24307">
        <ele>73.1976318</ele>
        <time>2017-03-13T08:37:25Z</time>
      </trkpt>
      <trkpt lat="44.58759" lon="-0.24268">
        <ele>73.1976318</ele>
        <time>2017-03-13T08:37:50Z</time>
      </trkpt>
      <trkpt lat="44.58749" lon="-0.24239">
        <ele>73.6782227</ele>
        <time>2017-03-13T08:38:09Z</time>
      </trkpt>
      <trkpt lat="44.58733" lon="-0.24211">
        <ele>74.1588135</ele>
        <time>2017-03-13T08:38:29Z</time>
      </trkpt>
      <trkpt lat="44.58713" lon="-0.24182">
        <ele>75.1202393</ele>
        <time>2017-03-13T08:38:54Z</time>
      </trkpt>
      <trkpt lat="44.58695" lon="-0.24164">
        <ele>76.5621338</ele>
        <time>2017-03-13T08:39:13Z</time>
      </trkpt>
      <trkpt lat="44.58677" lon="-0.2415">
        <ele>77.0428467</ele>
        <time>2017-03-13T08:39:30Z</time>
      </trkpt>
      <trkpt lat="44.58658" lon="-0.24141">
        <ele>77.5234375</ele>
        <time>2017-03-13T08:39:46Z</time>
      </trkpt>
      <trkpt lat="44.58644" lon="-0.24137">
        <ele>78.0040283</ele>
        <time>2017-03-13T08:39:59Z</time>
      </trkpt>
      <trkpt lat="44.58631" lon="-0.24127">
        <ele>78.4847412</ele>
        <time>2017-03-13T08:40:12Z</time>
      </trkpt>
      <trkpt lat="44.58615" lon="-0.24121">
        <ele>78.4847412</ele>
        <time>2017-03-13T08:40:25Z</time>
      </trkpt>
      <trkpt lat="44.58599" lon="-0.2411">
        <ele>78.4847412</ele>
        <time>2017-03-13T08:40:40Z</time>
      </trkpt>
      <trkpt lat="44.58572" lon="-0.24097">
        <ele>78.9654541</ele>
        <time>2017-03-13T08:41:03Z</time>
      </trkpt>
      <trkpt lat="44.58547" lon="-0.24084">
        <ele>78.4847412</ele>
        <time>2017-03-13T08:41:26Z</time>
      </trkpt>
      <trkpt lat="44.58521" lon="-0.2407">
        <ele>78.0040283</ele>
        <time>2017-03-13T08:41:49Z</time>
      </trkpt>
      <trkpt lat="44.58498" lon="-0.24058">
        <ele>78.4847412</ele>
        <time>2017-03-13T08:42:09Z</time>
      </trkpt>
      <trkpt lat="44.58469" lon="-0.24044">
        <ele>77.5234375</ele>
        <time>2017-03-13T08:42:35Z</time>
      </trkpt>
      <trkpt lat="44.58445" lon="-0.24029">
        <ele>78.0040283</ele>
        <time>2017-03-13T08:42:57Z</time>
      </trkpt>
      <trkpt lat="44.58435" lon="-0.24017">
        <ele>77.5234375</ele>
        <time>2017-03-13T08:43:16Z</time>
      </trkpt>
      <trkpt lat="44.58426" lon="-0.24001">
        <ele>76.5621338</ele>
        <time>2017-03-13T08:43:31Z</time>
      </trkpt>
      <trkpt lat="44.58417" lon="-0.23989">
        <ele>76.0814209</ele>
        <time>2017-03-13T08:43:43Z</time>
      </trkpt>
      <trkpt lat="44.58405" lon="-0.23969">
        <ele>74.1588135</ele>
        <time>2017-03-13T08:43:58Z</time>
      </trkpt>
      <trkpt lat="44.58398" lon="-0.23959">
        <ele>72.7169189</ele>
        <time>2017-03-13T08:44:10Z</time>
      </trkpt>
      <trkpt lat="44.5839" lon="-0.23945">
        <ele>72.7169189</ele>
        <time>2017-03-13T08:44:22Z</time>
      </trkpt>
      <trkpt lat="44.5838" lon="-0.23929">
        <ele>71.7554932</ele>
        <time>2017-03-13T08:44:35Z</time>
      </trkpt>
      <trkpt lat="44.58367" lon="-0.2391">
        <ele>71.2749023</ele>
        <time>2017-03-13T08:44:52Z</time>
      </trkpt>
      <trkpt lat="44.58356" lon="-0.23898">
        <ele>70.7941895</ele>
        <time>2017-03-13T08:45:03Z</time>
      </trkpt>
      <trkpt lat="44.58341" lon="-0.23892">
        <ele>70.3134766</ele>
        <time>2017-03-13T08:45:18Z</time>
      </trkpt>
      <trkpt lat="44.58316" lon="-0.23879">
        <ele>70.7941895</ele>
        <time>2017-03-13T08:45:41Z</time>
      </trkpt>
      <trkpt lat="44.58308" lon="-0.23873">
        <ele>70.7941895</ele>
        <time>2017-03-13T08:47:21Z</time>
      </trkpt>
      <trkpt lat="44.58306" lon="-0.23861">
        <ele>69.8328857</ele>
        <time>2017-03-13T08:47:38Z</time>
      </trkpt>
      <trkpt lat="44.58304" lon="-0.23842">
        <ele>69.3522949</ele>
        <time>2017-03-13T08:48:08Z</time>
      </trkpt>
      <trkpt lat="44.58297" lon="-0.2383">
        <ele>69.3522949</ele>
        <time>2017-03-13T08:48:18Z</time>
      </trkpt>
      <trkpt lat="44.58286" lon="-0.23819">
        <ele>69.3522949</ele>
        <time>2017-03-13T08:48:31Z</time>
      </trkpt>
      <trkpt lat="44.58276" lon="-0.23805">
        <ele>69.3522949</ele>
        <time>2017-03-13T08:48:43Z</time>
      </trkpt>
      <trkpt lat="44.58269" lon="-0.23795">
        <ele>69.3522949</ele>
        <time>2017-03-13T08:48:52Z</time>
      </trkpt>
      <trkpt lat="44.5826" lon="-0.23783">
        <ele>69.8328857</ele>
        <time>2017-03-13T08:49:03Z</time>
      </trkpt>
      <trkpt lat="44.58246" lon="-0.23763">
        <ele>69.8328857</ele>
        <time>2017-03-13T08:49:20Z</time>
      </trkpt>
      <trkpt lat="44.58231" lon="-0.2374">
        <ele>70.7941895</ele>
        <time>2017-03-13T08:49:37Z</time>
      </trkpt>
      <trkpt lat="44.58212" lon="-0.2371">
        <ele>71.7554932</ele>
        <time>2017-03-13T08:50:02Z</time>
      </trkpt>
      <trkpt lat="44.58197" lon="-0.23686">
        <ele>72.7169189</ele>
        <time>2017-03-13T08:50:22Z</time>
      </trkpt>
      <trkpt lat="44.58181" lon="-0.23663">
        <ele>73.6782227</ele>
        <time>2017-03-13T08:50:42Z</time>
      </trkpt>
      <trkpt lat="44.58163" lon="-0.23635">
        <ele>74.6395264</ele>
        <time>2017-03-13T08:51:07Z</time>
      </trkpt>
      <trkpt lat="44.58144" lon="-0.23602">
        <ele>75.1202393</ele>
        <time>2017-03-13T08:51:34Z</time>
      </trkpt>
      <trkpt lat="44.58127" lon="-0.23565">
        <ele>76.5621338</ele>
        <time>2017-03-13T08:52:02Z</time>
      </trkpt>
      <trkpt lat="44.5811" lon="-0.23528">
        <ele>77.5234375</ele>
        <time>2017-03-13T08:52:29Z</time>
      </trkpt>
      <trkpt lat="44.58095" lon="-0.23497">
        <ele>78.0040283</ele>
        <time>2017-03-13T08:52:53Z</time>
      </trkpt>
      <trkpt lat="44.58082" lon="-0.23473">
        <ele>78.9654541</ele>
        <time>2017-03-13T08:53:14Z</time>
      </trkpt>
      <trkpt lat="44.58065" lon="-0.2345">
        <ele>79.4460449</ele>
        <time>2017-03-13T08:53:36Z</time>
      </trkpt>
      <trkpt lat="44.58064" lon="-0.23449">
        <ele>79.4460449</ele>
        <time>2017-03-13T08:53:37Z</time>
      </trkpt>
      <trkpt lat="44.58063" lon="-0.23441">
        <ele>79.4460449</ele>
        <time>2017-03-13T08:53:43Z</time>
      </trkpt>
      <trkpt lat="44.58047" lon="-0.23422">
        <ele>81.3687744</ele>
        <time>2017-03-13T08:54:03Z</time>
      </trkpt>
      <trkpt lat="44.58032" lon="-0.23399">
        <ele>82.810791</ele>
        <time>2017-03-13T08:54:24Z</time>
      </trkpt>
      <trkpt lat="44.58018" lon="-0.23363">
        <ele>84.2526855</ele>
        <time>2017-03-13T08:54:50Z</time>
      </trkpt>
      <trkpt lat="44.58008" lon="-0.23324">
        <ele>85.6945801</ele>
        <time>2017-03-13T08:55:16Z</time>
      </trkpt>
      <trkpt lat="44.57999" lon="-0.23285">
        <ele>87.1365967</ele>
        <time>2017-03-13T08:55:42Z</time>
      </trkpt>
      <trkpt lat="44.57989" lon="-0.23244">
        <ele>87.6171875</ele>
        <time>2017-03-13T08:56:09Z</time>
      </trkpt>
      <trkpt lat="44.5798" lon="-0.23206">
        <ele>88.0980225</ele>
        <time>2017-03-13T08:56:34Z</time>
      </trkpt>
      <trkpt lat="44.57971" lon="-0.2317">
        <ele>89.539917</ele>
        <time>2017-03-13T08:56:58Z</time>
      </trkpt>
      <trkpt lat="44.57974" lon="-0.23139">
        <ele>90.0206299</ele>
        <time>2017-03-13T08:57:19Z</time>
      </trkpt>
      <trkpt lat="44.57991" lon="-0.23123">
        <ele>90.0206299</ele>
        <time>2017-03-13T08:57:38Z</time>
      </trkpt>
      <trkpt lat="44.58012" lon="-0.23117">
        <ele>91.4625244</ele>
        <time>2017-03-13T08:57:57Z</time>
      </trkpt>
      <trkpt lat="44.58038" lon="-0.2311">
        <ele>92.904541</ele>
        <time>2017-03-13T08:58:22Z</time>
      </trkpt>
      <trkpt lat="44.58064" lon="-0.23102">
        <ele>94.8271484</ele>
        <time>2017-03-13T08:58:47Z</time>
      </trkpt>
      <trkpt lat="44.58084" lon="-0.23097">
        <ele>97.2304688</ele>
        <time>2017-03-13T08:59:09Z</time>
      </trkpt>
      <trkpt lat="44.58086" lon="-0.23096">
        <ele>98.1918945</ele>
        <time>2017-03-13T08:59:22Z</time>
      </trkpt>
      <trkpt lat="44.5809" lon="-0.23094">
        <ele>98.6724854</ele>
        <time>2017-03-13T08:59:36Z</time>
      </trkpt>
      <trkpt lat="44.58103" lon="-0.23089">
        <ele>100.114502</ele>
        <time>2017-03-13T08:59:58Z</time>
      </trkpt>
      <trkpt lat="44.58105" lon="-0.2309">
        <ele>100.5950928</ele>
        <time>2017-03-13T09:00:23Z</time>
      </trkpt>
      <trkpt lat="44.5812" lon="-0.23085">
        <ele>102.0371094</ele>
        <time>2017-03-13T09:00:50Z</time>
      </trkpt>
      <trkpt lat="44.5814" lon="-0.23077">
        <ele>104.4404297</ele>
        <time>2017-03-13T09:01:10Z</time>
      </trkpt>
      <trkpt lat="44.58158" lon="-0.23068">
        <ele>107.8050537</ele>
        <time>2017-03-13T09:01:28Z</time>
      </trkpt>
      <trkpt lat="44.58181" lon="-0.23056">
        <ele>109.2469482</ele>
        <time>2017-03-13T09:01:50Z</time>
      </trkpt>
      <trkpt lat="44.58202" lon="-0.23044">
        <ele>109.7276611</ele>
        <time>2017-03-13T09:02:10Z</time>
      </trkpt>
      <trkpt lat="44.58213" lon="-0.23036">
        <ele>109.7276611</ele>
        <time>2017-03-13T09:02:20Z</time>
      </trkpt>
      <trkpt lat="44.58228" lon="-0.23011">
        <ele>108.7662354</ele>
        <time>2017-03-13T09:02:41Z</time>
      </trkpt>
      <trkpt lat="44.58229" lon="-0.23003">
        <ele>109.7276611</ele>
        <time>2017-03-13T09:02:46Z</time>
      </trkpt>
      <trkpt lat="44.58224" lon="-0.22976">
        <ele>112.1309814</ele>
        <time>2017-03-13T09:03:04Z</time>
      </trkpt>
      <trkpt lat="44.58214" lon="-0.22941">
        <ele>113.572998</ele>
        <time>2017-03-13T09:03:27Z</time>
      </trkpt>
      <trkpt lat="44.58202" lon="-0.22911">
        <ele>113.572998</ele>
        <time>2017-03-13T09:03:48Z</time>
      </trkpt>
      <trkpt lat="44.58188" lon="-0.22882">
        <ele>114.5341797</ele>
        <time>2017-03-13T09:04:10Z</time>
      </trkpt>
      <trkpt lat="44.58179" lon="-0.22865">
        <ele>115.9761963</ele>
        <time>2017-03-13T09:04:24Z</time>
      </trkpt>
      <trkpt lat="44.58164" lon="-0.22838">
        <ele>115.9761963</ele>
        <time>2017-03-13T09:04:46Z</time>
      </trkpt>
      <trkpt lat="44.58148" lon="-0.2282">
        <ele>116.9375</ele>
        <time>2017-03-13T09:05:05Z</time>
      </trkpt>
      <trkpt lat="44.58133" lon="-0.22791">
        <ele>116.9375</ele>
        <time>2017-03-13T09:05:26Z</time>
      </trkpt>
      <trkpt lat="44.58129" lon="-0.22751">
        <ele>115.9761963</ele>
        <time>2017-03-13T09:05:51Z</time>
      </trkpt>
      <trkpt lat="44.58136" lon="-0.22712">
        <ele>115.9761963</ele>
        <time>2017-03-13T09:06:16Z</time>
      </trkpt>
      <trkpt lat="44.58145" lon="-0.22678">
        <ele>115.4956055</ele>
        <time>2017-03-13T09:06:39Z</time>
      </trkpt>
      <trkpt lat="44.58145" lon="-0.22669">
        <ele>115.4956055</ele>
        <time>2017-03-13T09:06:53Z</time>
      </trkpt>
      <trkpt lat="44.58148" lon="-0.22647">
        <ele>115.0148926</ele>
        <time>2017-03-13T09:07:09Z</time>
      </trkpt>
      <trkpt lat="44.58148" lon="-0.22613">
        <ele>115.0148926</ele>
        <time>2017-03-13T09:07:31Z</time>
      </trkpt>
      <trkpt lat="44.58147" lon="-0.22569">
        <ele>114.5341797</ele>
        <time>2017-03-13T09:07:58Z</time>
      </trkpt>
      <trkpt lat="44.58156" lon="-0.22535">
        <ele>115.0148926</ele>
        <time>2017-03-13T09:08:23Z</time>
      </trkpt>
      <trkpt lat="44.58173" lon="-0.22494">
        <ele>114.0535889</ele>
        <time>2017-03-13T09:08:53Z</time>
      </trkpt>
      <trkpt lat="44.58176" lon="-0.22485">
        <ele>114.0535889</ele>
        <time>2017-03-13T09:09:14Z</time>
      </trkpt>
      <trkpt lat="44.58181" lon="-0.22473">
        <ele>114.0535889</ele>
        <time>2017-03-13T09:09:33Z</time>
      </trkpt>
      <trkpt lat="44.58175" lon="-0.22444">
        <ele>114.5341797</ele>
        <time>2017-03-13T09:09:54Z</time>
      </trkpt>
      <trkpt lat="44.58156" lon="-0.22422">
        <ele>114.5341797</ele>
        <time>2017-03-13T09:10:15Z</time>
      </trkpt>
      <trkpt lat="44.58156" lon="-0.22381">
        <ele>114.5341797</ele>
        <time>2017-03-13T09:10:40Z</time>
      </trkpt>
      <trkpt lat="44.58159" lon="-0.22339">
        <ele>114.0535889</ele>
        <time>2017-03-13T09:11:06Z</time>
      </trkpt>
      <trkpt lat="44.58158" lon="-0.22296">
        <ele>114.5341797</ele>
        <time>2017-03-13T09:11:32Z</time>
      </trkpt>
      <trkpt lat="44.58154" lon="-0.22261">
        <ele>114.5341797</ele>
        <time>2017-03-13T09:11:54Z</time>
      </trkpt>
      <trkpt lat="44.58151" lon="-0.22223">
        <ele>114.0535889</ele>
        <time>2017-03-13T09:12:19Z</time>
      </trkpt>
      <trkpt lat="44.58147" lon="-0.22175">
        <ele>114.0535889</ele>
        <time>2017-03-13T09:12:49Z</time>
      </trkpt>
      <trkpt lat="44.58146" lon="-0.22137">
        <ele>114.0535889</ele>
        <time>2017-03-13T09:13:12Z</time>
      </trkpt>
      <trkpt lat="44.58148" lon="-0.22099">
        <ele>113.572998</ele>
        <time>2017-03-13T09:13:37Z</time>
      </trkpt>
      <trkpt lat="44.58152" lon="-0.22059">
        <ele>114.5341797</ele>
        <time>2017-03-13T09:14:01Z</time>
      </trkpt>
      <trkpt lat="44.58153" lon="-0.22044">
        <ele>108.7662354</ele>
        <time>2017-03-13T09:14:10Z</time>
      </trkpt>
      <trkpt lat="44.58153" lon="-0.22043">
        <ele>113.0922852</ele>
        <time>2017-03-13T09:14:11Z</time>
      </trkpt>
      <trkpt lat="44.58156" lon="-0.22016">
        <ele>114.0535889</ele>
        <time>2017-03-13T09:14:29Z</time>
      </trkpt>
      <trkpt lat="44.58162" lon="-0.21991">
        <ele>114.5341797</ele>
        <time>2017-03-13T09:14:45Z</time>
      </trkpt>
      <trkpt lat="44.58171" lon="-0.21954">
        <ele>115.0148926</ele>
        <time>2017-03-13T09:15:09Z</time>
      </trkpt>
      <trkpt lat="44.5818" lon="-0.21915">
        <ele>115.4956055</ele>
        <time>2017-03-13T09:15:33Z</time>
      </trkpt>
      <trkpt lat="44.58193" lon="-0.21868">
        <ele>113.572998</ele>
        <time>2017-03-13T09:16:03Z</time>
      </trkpt>
      <trkpt lat="44.58212" lon="-0.21834">
        <ele>111.1695557</ele>
        <time>2017-03-13T09:16:30Z</time>
      </trkpt>
      <trkpt lat="44.58224" lon="-0.21796">
        <ele>109.7276611</ele>
        <time>2017-03-13T09:16:56Z</time>
      </trkpt>
      <trkpt lat="44.58234" lon="-0.2176">
        <ele>108.2856445</ele>
        <time>2017-03-13T09:17:20Z</time>
      </trkpt>
      <trkpt lat="44.58253" lon="-0.21728">
        <ele>106.3630371</ele>
        <time>2017-03-13T09:17:45Z</time>
      </trkpt>
      <trkpt lat="44.5827" lon="-0.21697">
        <ele>105.8824463</ele>
        <time>2017-03-13T09:18:09Z</time>
      </trkpt>
      <trkpt lat="44.58288" lon="-0.21663">
        <ele>104.4404297</ele>
        <time>2017-03-13T09:18:35Z</time>
      </trkpt>
      <trkpt lat="44.5831" lon="-0.21624">
        <ele>105.4017334</ele>
        <time>2017-03-13T09:19:05Z</time>
      </trkpt>
      <trkpt lat="44.58326" lon="-0.21597">
        <ele>105.8824463</ele>
        <time>2017-03-13T09:19:26Z</time>
      </trkpt>
      <trkpt lat="44.58343" lon="-0.21565">
        <ele>105.4017334</ele>
        <time>2017-03-13T09:19:50Z</time>
      </trkpt>
      <trkpt lat="44.58358" lon="-0.21536">
        <ele>105.4017334</ele>
        <time>2017-03-13T09:20:12Z</time>
      </trkpt>
      <trkpt lat="44.58372" lon="-0.21506">
        <ele>105.4017334</ele>
        <time>2017-03-13T09:20:34Z</time>
      </trkpt>
      <trkpt lat="44.58384" lon="-0.21478">
        <ele>105.8824463</ele>
        <time>2017-03-13T09:20:54Z</time>
      </trkpt>
      <trkpt lat="44.58396" lon="-0.21448">
        <ele>105.8824463</ele>
        <time>2017-03-13T09:21:15Z</time>
      </trkpt>
      <trkpt lat="44.58409" lon="-0.21415">
        <ele>106.3630371</ele>
        <time>2017-03-13T09:21:38Z</time>
      </trkpt>
      <trkpt lat="44.58414" lon="-0.21386">
        <ele>106.8436279</ele>
        <time>2017-03-13T09:21:58Z</time>
      </trkpt>
      <trkpt lat="44.58411" lon="-0.2137">
        <ele>106.3630371</ele>
        <time>2017-03-13T09:22:10Z</time>
      </trkpt>
      <trkpt lat="44.58415" lon="-0.21357">
        <ele>106.3630371</ele>
        <time>2017-03-13T09:22:21Z</time>
      </trkpt>
      <trkpt lat="44.58419" lon="-0.21355">
        <ele>106.8436279</ele>
        <time>2017-03-13T09:22:25Z</time>
      </trkpt>
      <trkpt lat="44.58436" lon="-0.21338">
        <ele>107.8050537</ele>
        <time>2017-03-13T09:22:47Z</time>
      </trkpt>
      <trkpt lat="44.58449" lon="-0.21325">
        <ele>107.8050537</ele>
        <time>2017-03-13T09:23:04Z</time>
      </trkpt>
      <trkpt lat="44.58469" lon="-0.21315">
        <ele>109.2469482</ele>
        <time>2017-03-13T09:23:24Z</time>
      </trkpt>
      <trkpt lat="44.58483" lon="-0.21305">
        <ele>110.208252</ele>
        <time>2017-03-13T09:23:40Z</time>
      </trkpt>
      <trkpt lat="44.58502" lon="-0.21294">
        <ele>110.208252</ele>
        <time>2017-03-13T09:24:00Z</time>
      </trkpt>
      <trkpt lat="44.58506" lon="-0.21292">
        <ele>111.6502686</ele>
        <time>2017-03-13T09:24:03Z</time>
      </trkpt>
      <trkpt lat="44.5852" lon="-0.21281">
        <ele>112.6115723</ele>
        <time>2017-03-13T09:24:19Z</time>
      </trkpt>
      <trkpt lat="44.58524" lon="-0.21281">
        <ele>113.0922852</ele>
        <time>2017-03-13T09:24:21Z</time>
      </trkpt>
      <trkpt lat="44.58545" lon="-0.21268">
        <ele>113.0922852</ele>
        <time>2017-03-13T09:24:42Z</time>
      </trkpt>
      <trkpt lat="44.58546" lon="-0.21268">
        <ele>113.572998</ele>
        <time>2017-03-13T09:24:43Z</time>
      </trkpt>
      <trkpt lat="44.58544" lon="-0.21235">
        <ele>113.572998</ele>
        <time>2017-03-13T09:25:04Z</time>
      </trkpt>
      <trkpt lat="44.58542" lon="-0.21208">
        <ele>114.0535889</ele>
        <time>2017-03-13T09:25:23Z</time>
      </trkpt>
      <trkpt lat="44.5854" lon="-0.21174">
        <ele>115.9761963</ele>
        <time>2017-03-13T09:25:45Z</time>
      </trkpt>
      <trkpt lat="44.58543" lon="-0.21153">
        <ele>115.9761963</ele>
        <time>2017-03-13T09:25:58Z</time>
      </trkpt>
      <trkpt lat="44.5854" lon="-0.21124">
        <ele>116.4567871</ele>
        <time>2017-03-13T09:26:16Z</time>
      </trkpt>
      <trkpt lat="44.58537" lon="-0.21094">
        <ele>115.4956055</ele>
        <time>2017-03-13T09:26:35Z</time>
      </trkpt>
      <trkpt lat="44.58531" lon="-0.21053">
        <ele>113.0922852</ele>
        <time>2017-03-13T09:27:00Z</time>
      </trkpt>
      <trkpt lat="44.58521" lon="-0.21017">
        <ele>112.6115723</ele>
        <time>2017-03-13T09:27:24Z</time>
      </trkpt>
      <trkpt lat="44.58504" lon="-0.20997">
        <ele>112.1309814</ele>
        <time>2017-03-13T09:27:43Z</time>
      </trkpt>
      <trkpt lat="44.58478" lon="-0.20985">
        <ele>112.6115723</ele>
        <time>2017-03-13T09:28:06Z</time>
      </trkpt>
      <trkpt lat="44.58456" lon="-0.20971">
        <ele>112.1309814</ele>
        <time>2017-03-13T09:28:27Z</time>
      </trkpt>
      <trkpt lat="44.58431" lon="-0.20957">
        <ele>109.7276611</ele>
        <time>2017-03-13T09:28:50Z</time>
      </trkpt>
      <trkpt lat="44.58406" lon="-0.20955">
        <ele>106.8436279</ele>
        <time>2017-03-13T09:29:13Z</time>
      </trkpt>
      <trkpt lat="44.5838" lon="-0.20955">
        <ele>103.4790039</ele>
        <time>2017-03-13T09:29:36Z</time>
      </trkpt>
      <trkpt lat="44.58355" lon="-0.20954">
        <ele>100.5950928</ele>
        <time>2017-03-13T09:29:57Z</time>
      </trkpt>
      <trkpt lat="44.58333" lon="-0.20951">
        <ele>96.2692871</ele>
        <time>2017-03-13T09:30:14Z</time>
      </trkpt>
      <trkpt lat="44.58318" lon="-0.2094">
        <ele>96.2692871</ele>
        <time>2017-03-13T09:30:31Z</time>
      </trkpt>
      <trkpt lat="44.58304" lon="-0.20917">
        <ele>96.2692871</ele>
        <time>2017-03-13T09:30:52Z</time>
      </trkpt>
      <trkpt lat="44.58296" lon="-0.20903">
        <ele>95.3077393</ele>
        <time>2017-03-13T09:31:03Z</time>
      </trkpt>
      <trkpt lat="44.58292" lon="-0.20893">
        <ele>94.8271484</ele>
        <time>2017-03-13T09:31:10Z</time>
      </trkpt>
      <trkpt lat="44.58287" lon="-0.2086">
        <ele>98.6724854</ele>
        <time>2017-03-13T09:31:31Z</time>
      </trkpt>
      <trkpt lat="44.58287" lon="-0.20858">
        <ele>95.3077393</ele>
        <time>2017-03-13T09:31:32Z</time>
      </trkpt>
      <trkpt lat="44.58288" lon="-0.20842">
        <ele>98.1918945</ele>
        <time>2017-03-13T09:31:42Z</time>
      </trkpt>
      <trkpt lat="44.58288" lon="-0.20841">
        <ele>98.1918945</ele>
        <time>2017-03-13T09:31:43Z</time>
      </trkpt>
      <trkpt lat="44.58288" lon="-0.2084">
        <ele>94.3465576</ele>
        <time>2017-03-13T09:31:44Z</time>
      </trkpt>
      <trkpt lat="44.58288" lon="-0.20839">
        <ele>94.3465576</ele>
        <time>2017-03-13T09:31:45Z</time>
      </trkpt>
      <trkpt lat="44.58289" lon="-0.20835">
        <ele>94.8271484</ele>
        <time>2017-03-13T09:31:53Z</time>
      </trkpt>
      <trkpt lat="44.58292" lon="-0.20831">
        <ele>95.7884521</ele>
        <time>2017-03-13T09:32:29Z</time>
      </trkpt>
      <trkpt lat="44.58294" lon="-0.2082">
        <ele>95.3077393</ele>
        <time>2017-03-13T09:32:51Z</time>
      </trkpt>
      <trkpt lat="44.58297" lon="-0.20787">
        <ele>93.8658447</ele>
        <time>2017-03-13T09:33:11Z</time>
      </trkpt>
      <trkpt lat="44.58294" lon="-0.20757">
        <ele>90.5013428</ele>
        <time>2017-03-13T09:33:29Z</time>
      </trkpt>
      <trkpt lat="44.58292" lon="-0.20724">
        <ele>89.0593262</ele>
        <time>2017-03-13T09:33:49Z</time>
      </trkpt>
      <trkpt lat="44.5829" lon="-0.20696">
        <ele>86.6560059</ele>
        <time>2017-03-13T09:34:06Z</time>
      </trkpt>
      <trkpt lat="44.58287" lon="-0.20668">
        <ele>83.2913818</ele>
        <time>2017-03-13T09:34:24Z</time>
      </trkpt>
      <trkpt lat="44.58282" lon="-0.20632">
        <ele>80.4074707</ele>
        <time>2017-03-13T09:34:46Z</time>
      </trkpt>
      <trkpt lat="44.58271" lon="-0.20586">
        <ele>77.0428467</ele>
        <time>2017-03-13T09:35:14Z</time>
      </trkpt>
      <trkpt lat="44.58262" lon="-0.20552">
        <ele>74.1588135</ele>
        <time>2017-03-13T09:35:36Z</time>
      </trkpt>
      <trkpt lat="44.58244" lon="-0.20512">
        <ele>70.7941895</ele>
        <time>2017-03-13T09:36:03Z</time>
      </trkpt>
      <trkpt lat="44.58225" lon="-0.20471">
        <ele>68.3908691</ele>
        <time>2017-03-13T09:36:30Z</time>
      </trkpt>
      <trkpt lat="44.58208" lon="-0.20425">
        <ele>65.9876709</ele>
        <time>2017-03-13T09:36:59Z</time>
      </trkpt>
      <trkpt lat="44.58187" lon="-0.20389">
        <ele>64.0650635</ele>
        <time>2017-03-13T09:37:24Z</time>
      </trkpt>
      <trkpt lat="44.58168" lon="-0.20375">
        <ele>62.6229248</ele>
        <time>2017-03-13T09:37:44Z</time>
      </trkpt>
      <trkpt lat="44.58141" lon="-0.20376">
        <ele>62.142334</ele>
        <time>2017-03-13T09:38:06Z</time>
      </trkpt>
      <trkpt lat="44.58122" lon="-0.20378">
        <ele>61.1810303</ele>
        <time>2017-03-13T09:38:22Z</time>
      </trkpt>
      <trkpt lat="44.58097" lon="-0.20381">
        <ele>60.7003174</ele>
        <time>2017-03-13T09:38:43Z</time>
      </trkpt>
      <trkpt lat="44.58067" lon="-0.20384">
        <ele>58.77771</ele>
        <time>2017-03-13T09:39:06Z</time>
      </trkpt>
      <trkpt lat="44.58037" lon="-0.20387">
        <ele>57.3358154</ele>
        <time>2017-03-13T09:39:30Z</time>
      </trkpt>
      <trkpt lat="44.58004" lon="-0.20387">
        <ele>55.8937988</ele>
        <time>2017-03-13T09:39:56Z</time>
      </trkpt>
      <trkpt lat="44.57974" lon="-0.20386">
        <ele>53.9711914</ele>
        <time>2017-03-13T09:40:20Z</time>
      </trkpt>
      <trkpt lat="44.57941" lon="-0.20394">
        <ele>52.5291748</ele>
        <time>2017-03-13T09:40:47Z</time>
      </trkpt>
      <trkpt lat="44.5792" lon="-0.20415">
        <ele>51.5678711</ele>
        <time>2017-03-13T09:41:08Z</time>
      </trkpt>
      <trkpt lat="44.57894" lon="-0.20427">
        <ele>51.0871582</ele>
        <time>2017-03-13T09:41:31Z</time>
      </trkpt>
      <trkpt lat="44.57862" lon="-0.20427">
        <ele>50.1259766</ele>
        <time>2017-03-13T09:41:57Z</time>
      </trkpt>
      <trkpt lat="44.57834" lon="-0.20412">
        <ele>49.6452637</ele>
        <time>2017-03-13T09:42:22Z</time>
      </trkpt>
      <trkpt lat="44.57819" lon="-0.20377">
        <ele>49.1645508</ele>
        <time>2017-03-13T09:42:47Z</time>
      </trkpt>
      <trkpt lat="44.57816" lon="-0.20338">
        <ele>48.2033691</ele>
        <time>2017-03-13T09:43:10Z</time>
      </trkpt>
      <trkpt lat="44.57822" lon="-0.20288">
        <ele>49.1645508</ele>
        <time>2017-03-13T09:43:38Z</time>
      </trkpt>
      <trkpt lat="44.57826" lon="-0.20239">
        <ele>46.7612305</ele>
        <time>2017-03-13T09:44:06Z</time>
      </trkpt>
      <trkpt lat="44.57825" lon="-0.20194">
        <ele>44.838623</ele>
        <time>2017-03-13T09:44:32Z</time>
      </trkpt>
      <trkpt lat="44.57823" lon="-0.20139">
        <ele>42.4354248</ele>
        <time>2017-03-13T09:45:03Z</time>
      </trkpt>
      <trkpt lat="44.57821" lon="-0.20086">
        <ele>40.0321045</ele>
        <time>2017-03-13T09:45:32Z</time>
      </trkpt>
      <trkpt lat="44.57817" lon="-0.20053">
        <ele>38.109375</ele>
        <time>2017-03-13T09:45:51Z</time>
      </trkpt>
      <trkpt lat="44.57817" lon="-0.2005">
        <ele>37.6286621</ele>
        <time>2017-03-13T09:45:53Z</time>
      </trkpt>
      <trkpt lat="44.57815" lon="-0.20043">
        <ele>37.6286621</ele>
        <time>2017-03-13T09:45:57Z</time>
      </trkpt>
      <trkpt lat="44.57799" lon="-0.20009">
        <ele>34.744873</ele>
        <time>2017-03-13T09:46:20Z</time>
      </trkpt>
      <trkpt lat="44.57784" lon="-0.19981">
        <ele>33.7834473</ele>
        <time>2017-03-13T09:46:40Z</time>
      </trkpt>
      <trkpt lat="44.57773" lon="-0.19952">
        <ele>32.8222656</ele>
        <time>2017-03-13T09:46:59Z</time>
      </trkpt>
      <trkpt lat="44.57781" lon="-0.19919">
        <ele>33.7834473</ele>
        <time>2017-03-13T09:47:20Z</time>
      </trkpt>
      <trkpt lat="44.5779" lon="-0.19894">
        <ele>34.744873</ele>
        <time>2017-03-13T09:47:37Z</time>
      </trkpt>
      <trkpt lat="44.57795" lon="-0.1986">
        <ele>35.7060547</ele>
        <time>2017-03-13T09:47:57Z</time>
      </trkpt>
      <trkpt lat="44.57789" lon="-0.19817">
        <ele>37.1480713</ele>
        <time>2017-03-13T09:48:22Z</time>
      </trkpt>
      <trkpt lat="44.57778" lon="-0.19768">
        <ele>36.6674805</ele>
        <time>2017-03-13T09:48:52Z</time>
      </trkpt>
      <trkpt lat="44.57763" lon="-0.19734">
        <ele>36.1867676</ele>
        <time>2017-03-13T09:49:15Z</time>
      </trkpt>
      <trkpt lat="44.57749" lon="-0.19705">
        <ele>35.7060547</ele>
        <time>2017-03-13T09:49:36Z</time>
      </trkpt>
      <trkpt lat="44.57725" lon="-0.19671">
        <ele>34.2641602</ele>
        <time>2017-03-13T09:50:04Z</time>
      </trkpt>
      <trkpt lat="44.57706" lon="-0.19647">
        <ele>34.2641602</ele>
        <time>2017-03-13T09:50:25Z</time>
      </trkpt>
      <trkpt lat="44.57688" lon="-0.19617">
        <ele>33.7834473</ele>
        <time>2017-03-13T09:50:48Z</time>
      </trkpt>
      <trkpt lat="44.57673" lon="-0.19594">
        <ele>32.3415527</ele>
        <time>2017-03-13T09:51:06Z</time>
      </trkpt>
      <trkpt lat="44.57672" lon="-0.19591">
        <ele>31.380127</ele>
        <time>2017-03-13T09:51:08Z</time>
      </trkpt>
      <trkpt lat="44.57661" lon="-0.19559">
        <ele>30.4188232</ele>
        <time>2017-03-13T09:51:29Z</time>
      </trkpt>
      <trkpt lat="44.5766" lon="-0.19522">
        <ele>30.4188232</ele>
        <time>2017-03-13T09:51:51Z</time>
      </trkpt>
      <trkpt lat="44.57672" lon="-0.19476">
        <ele>30.4188232</ele>
        <time>2017-03-13T09:52:19Z</time>
      </trkpt>
      <trkpt lat="44.57686" lon="-0.19445">
        <ele>30.4188232</ele>
        <time>2017-03-13T09:52:41Z</time>
      </trkpt>
      <trkpt lat="44.57703" lon="-0.19411">
        <ele>31.380127</ele>
        <time>2017-03-13T09:53:05Z</time>
      </trkpt>
      <trkpt lat="44.57717" lon="-0.19377">
        <ele>31.8607178</ele>
        <time>2017-03-13T09:53:29Z</time>
      </trkpt>
      <trkpt lat="44.57722" lon="-0.1936">
        <ele>32.8222656</ele>
        <time>2017-03-13T09:53:45Z</time>
      </trkpt>
      <trkpt lat="44.57728" lon="-0.19347">
        <ele>33.3028564</ele>
        <time>2017-03-13T09:54:00Z</time>
      </trkpt>
      <trkpt lat="44.57733" lon="-0.19343">
        <ele>33.7834473</ele>
        <time>2017-03-13T09:54:16Z</time>
      </trkpt>
      <trkpt lat="44.57733" lon="-0.19342">
        <ele>33.3028564</ele>
        <time>2017-03-13T09:54:45Z</time>
      </trkpt>
      <trkpt lat="44.57731" lon="-0.19343">
        <ele>33.3028564</ele>
        <time>2017-03-13T09:55:37Z</time>
      </trkpt>
      <trkpt lat="44.57733" lon="-0.19341">
        <ele>32.8222656</ele>
        <time>2017-03-13T09:55:49Z</time>
      </trkpt>
      <trkpt lat="44.57758" lon="-0.19338">
        <ele>33.7834473</ele>
        <time>2017-03-13T09:56:12Z</time>
      </trkpt>
      <trkpt lat="44.57782" lon="-0.19329">
        <ele>34.2641602</ele>
        <time>2017-03-13T09:56:34Z</time>
      </trkpt>
      <trkpt lat="44.57807" lon="-0.19317">
        <ele>35.2254639</ele>
        <time>2017-03-13T09:56:57Z</time>
      </trkpt>
      <trkpt lat="44.57833" lon="-0.19312">
        <ele>35.2254639</ele>
        <time>2017-03-13T09:57:21Z</time>
      </trkpt>
      <trkpt lat="44.5784" lon="-0.19286">
        <ele>35.7060547</ele>
        <time>2017-03-13T09:57:40Z</time>
      </trkpt>
      <trkpt lat="44.57839" lon="-0.1925">
        <ele>36.1867676</ele>
        <time>2017-03-13T09:58:04Z</time>
      </trkpt>
      <trkpt lat="44.57842" lon="-0.19211">
        <ele>37.6286621</ele>
        <time>2017-03-13T09:58:29Z</time>
      </trkpt>
      <trkpt lat="44.57845" lon="-0.19174">
        <ele>36.6674805</ele>
        <time>2017-03-13T09:58:52Z</time>
      </trkpt>
      <trkpt lat="44.57849" lon="-0.19134">
        <ele>36.1867676</ele>
        <time>2017-03-13T09:59:17Z</time>
      </trkpt>
      <trkpt lat="44.57851" lon="-0.19098">
        <ele>34.744873</ele>
        <time>2017-03-13T09:59:39Z</time>
      </trkpt>
      <trkpt lat="44.57854" lon="-0.19059">
        <ele>31.8607178</ele>
        <time>2017-03-13T10:00:03Z</time>
      </trkpt>
      <trkpt lat="44.57864" lon="-0.19029">
        <ele>31.8607178</ele>
        <time>2017-03-13T10:00:25Z</time>
      </trkpt>
      <trkpt lat="44.57886" lon="-0.19028">
        <ele>32.8222656</ele>
        <time>2017-03-13T10:00:45Z</time>
      </trkpt>
      <trkpt lat="44.57901" lon="-0.19002">
        <ele>35.7060547</ele>
        <time>2017-03-13T10:01:06Z</time>
      </trkpt>
      <trkpt lat="44.57902" lon="-0.18966">
        <ele>35.7060547</ele>
        <time>2017-03-13T10:01:28Z</time>
      </trkpt>
      <trkpt lat="44.57903" lon="-0.18932">
        <ele>36.6674805</ele>
        <time>2017-03-13T10:01:48Z</time>
      </trkpt>
      <trkpt lat="44.57904" lon="-0.18892">
        <ele>36.6674805</ele>
        <time>2017-03-13T10:02:11Z</time>
      </trkpt>
      <trkpt lat="44.57906" lon="-0.1885">
        <ele>36.6674805</ele>
        <time>2017-03-13T10:02:36Z</time>
      </trkpt>
      <trkpt lat="44.57921" lon="-0.18825">
        <ele>35.7060547</ele>
        <time>2017-03-13T10:02:57Z</time>
      </trkpt>
      <trkpt lat="44.57944" lon="-0.18809">
        <ele>36.6674805</ele>
        <time>2017-03-13T10:03:19Z</time>
      </trkpt>
      <trkpt lat="44.57953" lon="-0.18802">
        <ele>36.1867676</ele>
        <time>2017-03-13T10:03:29Z</time>
      </trkpt>
      <trkpt lat="44.57957" lon="-0.18799">
        <ele>36.1867676</ele>
        <time>2017-03-13T10:03:33Z</time>
      </trkpt>
      <trkpt lat="44.57979" lon="-0.18772">
        <ele>36.6674805</ele>
        <time>2017-03-13T10:03:57Z</time>
      </trkpt>
      <trkpt lat="44.58004" lon="-0.18733">
        <ele>36.6674805</ele>
        <time>2017-03-13T10:04:26Z</time>
      </trkpt>
      <trkpt lat="44.58024" lon="-0.187">
        <ele>36.6674805</ele>
        <time>2017-03-13T10:04:50Z</time>
      </trkpt>
      <trkpt lat="44.58043" lon="-0.18671">
        <ele>36.6674805</ele>
        <time>2017-03-13T10:05:12Z</time>
      </trkpt>
      <trkpt lat="44.58065" lon="-0.18636">
        <ele>37.1480713</ele>
        <time>2017-03-13T10:05:38Z</time>
      </trkpt>
      <trkpt lat="44.58086" lon="-0.18604">
        <ele>36.6674805</ele>
        <time>2017-03-13T10:06:01Z</time>
      </trkpt>
      <trkpt lat="44.58112" lon="-0.1856">
        <ele>37.1480713</ele>
        <time>2017-03-13T10:06:32Z</time>
      </trkpt>
      <trkpt lat="44.58131" lon="-0.18519">
        <ele>39.0706787</ele>
        <time>2017-03-13T10:06:58Z</time>
      </trkpt>
      <trkpt lat="44.58149" lon="-0.18474">
        <ele>39.0706787</ele>
        <time>2017-03-13T10:07:25Z</time>
      </trkpt>
      <trkpt lat="44.5817" lon="-0.18426">
        <ele>37.6286621</ele>
        <time>2017-03-13T10:07:55Z</time>
      </trkpt>
      <trkpt lat="44.58191" lon="-0.18375">
        <ele>36.6674805</ele>
        <time>2017-03-13T10:08:26Z</time>
      </trkpt>
      <trkpt lat="44.58209" lon="-0.18331">
        <ele>35.2254639</ele>
        <time>2017-03-13T10:08:53Z</time>
      </trkpt>
      <trkpt lat="44.58225" lon="-0.18279">
        <ele>35.7060547</ele>
        <time>2017-03-13T10:09:22Z</time>
      </trkpt>
      <trkpt lat="44.58232" lon="-0.1824">
        <ele>35.2254639</ele>
        <time>2017-03-13T10:09:43Z</time>
      </trkpt>
      <trkpt lat="44.58238" lon="-0.18197">
        <ele>34.2641602</ele>
        <time>2017-03-13T10:10:07Z</time>
      </trkpt>
      <trkpt lat="44.5824" lon="-0.18184">
        <ele>34.744873</ele>
        <time>2017-03-13T10:10:19Z</time>
      </trkpt>
      <trkpt lat="44.58261" lon="-0.18167">
        <ele>34.744873</ele>
        <time>2017-03-13T10:10:43Z</time>
      </trkpt>
      <trkpt lat="44.58279" lon="-0.18162">
        <ele>33.3028564</ele>
        <time>2017-03-13T10:11:05Z</time>
      </trkpt>
      <trkpt lat="44.58279" lon="-0.18161">
        <ele>33.7834473</ele>
        <time>2017-03-13T10:11:23Z</time>
      </trkpt>
      <trkpt lat="44.58279" lon="-0.1816">
        <ele>34.744873</ele>
        <time>2017-03-13T10:11:40Z</time>
      </trkpt>
      <trkpt lat="44.58287" lon="-0.18148">
        <ele>33.3028564</ele>
        <time>2017-03-13T10:11:58Z</time>
      </trkpt>
      <trkpt lat="44.58287" lon="-0.18147">
        <ele>32.8222656</ele>
        <time>2017-03-13T10:11:59Z</time>
      </trkpt>
      <trkpt lat="44.5829" lon="-0.18135">
        <ele>32.8222656</ele>
        <time>2017-03-13T10:12:08Z</time>
      </trkpt>
      <trkpt lat="44.58293" lon="-0.18121">
        <ele>32.3415527</ele>
        <time>2017-03-13T10:12:25Z</time>
      </trkpt>
      <trkpt lat="44.58296" lon="-0.18103">
        <ele>31.380127</ele>
        <time>2017-03-13T10:12:43Z</time>
      </trkpt>
      <trkpt lat="44.58303" lon="-0.18072">
        <ele>30.8995361</ele>
        <time>2017-03-13T10:13:05Z</time>
      </trkpt>
      <trkpt lat="44.58309" lon="-0.18046">
        <ele>30.4188232</ele>
        <time>2017-03-13T10:13:23Z</time>
      </trkpt>
      <trkpt lat="44.58316" lon="-0.18016">
        <ele>30.4188232</ele>
        <time>2017-03-13T10:13:44Z</time>
      </trkpt>
      <trkpt lat="44.58321" lon="-0.17984">
        <ele>29.9381104</ele>
        <time>2017-03-13T10:14:05Z</time>
      </trkpt>
      <trkpt lat="44.58326" lon="-0.17959">
        <ele>29.4575195</ele>
        <time>2017-03-13T10:14:22Z</time>
      </trkpt>
      <trkpt lat="44.58332" lon="-0.17926">
        <ele>28.9769287</ele>
        <time>2017-03-13T10:14:43Z</time>
      </trkpt>
      <trkpt lat="44.58339" lon="-0.17895">
        <ele>29.9381104</ele>
        <time>2017-03-13T10:15:03Z</time>
      </trkpt>
      <trkpt lat="44.58348" lon="-0.17855">
        <ele>30.4188232</ele>
        <time>2017-03-13T10:15:28Z</time>
      </trkpt>
      <trkpt lat="44.58356" lon="-0.17813">
        <ele>29.4575195</ele>
        <time>2017-03-13T10:15:53Z</time>
      </trkpt>
      <trkpt lat="44.58371" lon="-0.17765">
        <ele>30.8995361</ele>
        <time>2017-03-13T10:16:23Z</time>
      </trkpt>
      <trkpt lat="44.58384" lon="-0.17724">
        <ele>32.8222656</ele>
        <time>2017-03-13T10:16:49Z</time>
      </trkpt>
      <trkpt lat="44.58393" lon="-0.17689">
        <ele>34.2641602</ele>
        <time>2017-03-13T10:17:11Z</time>
      </trkpt>
      <trkpt lat="44.584" lon="-0.17661">
        <ele>33.7834473</ele>
        <time>2017-03-13T10:17:29Z</time>
      </trkpt>
      <trkpt lat="44.58408" lon="-0.17621">
        <ele>35.2254639</ele>
        <time>2017-03-13T10:17:53Z</time>
      </trkpt>
      <trkpt lat="44.58416" lon="-0.17569">
        <ele>34.744873</ele>
        <time>2017-03-13T10:18:22Z</time>
      </trkpt>
      <trkpt lat="44.58418" lon="-0.17531">
        <ele>35.2254639</ele>
        <time>2017-03-13T10:18:43Z</time>
      </trkpt>
      <trkpt lat="44.58415" lon="-0.1748">
        <ele>35.2254639</ele>
        <time>2017-03-13T10:19:10Z</time>
      </trkpt>
      <trkpt lat="44.58407" lon="-0.17435">
        <ele>34.744873</ele>
        <time>2017-03-13T10:19:34Z</time>
      </trkpt>
      <trkpt lat="44.58396" lon="-0.17393">
        <ele>34.744873</ele>
        <time>2017-03-13T10:19:58Z</time>
      </trkpt>
      <trkpt lat="44.58395" lon="-0.1739">
        <ele>35.7060547</ele>
        <time>2017-03-13T10:20:00Z</time>
      </trkpt>
      <trkpt lat="44.58392" lon="-0.17348">
        <ele>34.744873</ele>
        <time>2017-03-13T10:20:22Z</time>
      </trkpt>
      <trkpt lat="44.58391" lon="-0.17311">
        <ele>34.2641602</ele>
        <time>2017-03-13T10:20:42Z</time>
      </trkpt>
      <trkpt lat="44.58394" lon="-0.17273">
        <ele>31.8607178</ele>
        <time>2017-03-13T10:21:02Z</time>
      </trkpt>
      <trkpt lat="44.58395" lon="-0.17245">
        <ele>30.8995361</ele>
        <time>2017-03-13T10:21:17Z</time>
      </trkpt>
      <trkpt lat="44.58396" lon="-0.17194">
        <ele>29.4575195</ele>
        <time>2017-03-13T10:21:44Z</time>
      </trkpt>
      <trkpt lat="44.58394" lon="-0.17152">
        <ele>29.9381104</ele>
        <time>2017-03-13T10:22:08Z</time>
      </trkpt>
      <trkpt lat="44.58376" lon="-0.17136">
        <ele>29.9381104</ele>
        <time>2017-03-13T10:22:24Z</time>
      </trkpt>
      <trkpt lat="44.58348" lon="-0.17123">
        <ele>29.9381104</ele>
        <time>2017-03-13T10:22:46Z</time>
      </trkpt>
      <trkpt lat="44.58316" lon="-0.17107">
        <ele>29.9381104</ele>
        <time>2017-03-13T10:23:12Z</time>
      </trkpt>
      <trkpt lat="44.58312" lon="-0.17105">
        <ele>30.8995361</ele>
        <time>2017-03-13T10:23:16Z</time>
      </trkpt>
      <trkpt lat="44.58277" lon="-0.17097">
        <ele>31.380127</ele>
        <time>2017-03-13T10:23:43Z</time>
      </trkpt>
      <trkpt lat="44.58268" lon="-0.17097">
        <ele>27.5349121</ele>
        <time>2017-03-13T10:23:50Z</time>
      </trkpt>
      <trkpt lat="44.58267" lon="-0.17097">
        <ele>31.380127</ele>
        <time>2017-03-13T10:23:51Z</time>
      </trkpt>
      <trkpt lat="44.58262" lon="-0.17098">
        <ele>28.0155029</ele>
        <time>2017-03-13T10:23:55Z</time>
      </trkpt>
      <trkpt lat="44.58259" lon="-0.17098">
        <ele>32.3415527</ele>
        <time>2017-03-13T10:23:57Z</time>
      </trkpt>
      <trkpt lat="44.58258" lon="-0.17099">
        <ele>31.8607178</ele>
        <time>2017-03-13T10:23:58Z</time>
      </trkpt>
      <trkpt lat="44.58252" lon="-0.17099">
        <ele>27.0543213</ele>
        <time>2017-03-13T10:24:03Z</time>
      </trkpt>
      <trkpt lat="44.58251" lon="-0.17099">
        <ele>30.4188232</ele>
        <time>2017-03-13T10:24:04Z</time>
      </trkpt>
      <trkpt lat="44.58248" lon="-0.171">
        <ele>31.380127</ele>
        <time>2017-03-13T10:24:06Z</time>
      </trkpt>
      <trkpt lat="44.58247" lon="-0.171">
        <ele>28.0155029</ele>
        <time>2017-03-13T10:24:07Z</time>
      </trkpt>
      <trkpt lat="44.58245" lon="-0.171">
        <ele>31.8607178</ele>
        <time>2017-03-13T10:24:08Z</time>
      </trkpt>
      <trkpt lat="44.58218" lon="-0.17104">
        <ele>28.4962158</ele>
        <time>2017-03-13T10:24:29Z</time>
      </trkpt>
      <trkpt lat="44.58214" lon="-0.17104">
        <ele>31.380127</ele>
        <time>2017-03-13T10:24:32Z</time>
      </trkpt>
      <trkpt lat="44.58209" lon="-0.17105">
        <ele>28.0155029</ele>
        <time>2017-03-13T10:24:36Z</time>
      </trkpt>
      <trkpt lat="44.58203" lon="-0.17107">
        <ele>31.8607178</ele>
        <time>2017-03-13T10:24:41Z</time>
      </trkpt>
      <trkpt lat="44.58193" lon="-0.17111">
        <ele>28.9769287</ele>
        <time>2017-03-13T10:24:49Z</time>
      </trkpt>
      <trkpt lat="44.58163" lon="-0.17121">
        <ele>28.0155029</ele>
        <time>2017-03-13T10:25:13Z</time>
      </trkpt>
      <trkpt lat="44.5814" lon="-0.1713">
        <ele>27.5349121</ele>
        <time>2017-03-13T10:25:38Z</time>
      </trkpt>
      <trkpt lat="44.58136" lon="-0.17127">
        <ele>27.0543213</ele>
        <time>2017-03-13T10:25:47Z</time>
      </trkpt>
      <trkpt lat="44.58132" lon="-0.17091">
        <ele>22.7282715</ele>
        <time>2017-03-13T10:26:08Z</time>
      </trkpt>
      <trkpt lat="44.58132" lon="-0.17088">
        <ele>28.0155029</ele>
        <time>2017-03-13T10:26:10Z</time>
      </trkpt>
      <trkpt lat="44.58132" lon="-0.17086">
        <ele>24.651001</ele>
        <time>2017-03-13T10:26:11Z</time>
      </trkpt>
      <trkpt lat="44.58129" lon="-0.17053">
        <ele>23.2089844</ele>
        <time>2017-03-13T10:26:29Z</time>
      </trkpt>
      <trkpt lat="44.58129" lon="-0.17051">
        <ele>26.5736084</ele>
        <time>2017-03-13T10:26:30Z</time>
      </trkpt>
      <trkpt lat="44.58129" lon="-0.17049">
        <ele>23.6895752</ele>
        <time>2017-03-13T10:26:31Z</time>
      </trkpt>
      <trkpt lat="44.58128" lon="-0.17034">
        <ele>23.6895752</ele>
        <time>2017-03-13T10:26:39Z</time>
      </trkpt>
      <trkpt lat="44.58127" lon="-0.17023">
        <ele>22.7282715</ele>
        <time>2017-03-13T10:26:45Z</time>
      </trkpt>
      <trkpt lat="44.58125" lon="-0.16974">
        <ele>21.7669678</ele>
        <time>2017-03-13T10:27:11Z</time>
      </trkpt>
      <trkpt lat="44.58124" lon="-0.16922">
        <ele>21.7669678</ele>
        <time>2017-03-13T10:27:39Z</time>
      </trkpt>
      <trkpt lat="44.58123" lon="-0.16881">
        <ele>20.8056641</ele>
        <time>2017-03-13T10:28:02Z</time>
      </trkpt>
      <trkpt lat="44.58122" lon="-0.16832">
        <ele>20.3249512</ele>
        <time>2017-03-13T10:28:29Z</time>
      </trkpt>
      <trkpt lat="44.58121" lon="-0.168">
        <ele>20.3249512</ele>
        <time>2017-03-13T10:28:52Z</time>
      </trkpt>
      <trkpt lat="44.58106" lon="-0.16763">
        <ele>19.8443604</ele>
        <time>2017-03-13T10:29:16Z</time>
      </trkpt>
      <trkpt lat="44.58078" lon="-0.16746">
        <ele>19.8443604</ele>
        <time>2017-03-13T10:29:40Z</time>
      </trkpt>
      <trkpt lat="44.58057" lon="-0.16717">
        <ele>20.8056641</ele>
        <time>2017-03-13T10:30:03Z</time>
      </trkpt>
      <trkpt lat="44.58035" lon="-0.16682">
        <ele>20.8056641</ele>
        <time>2017-03-13T10:30:29Z</time>
      </trkpt>
      <trkpt lat="44.58006" lon="-0.16652">
        <ele>19.8443604</ele>
        <time>2017-03-13T10:30:57Z</time>
      </trkpt>
      <trkpt lat="44.57979" lon="-0.16619">
        <ele>19.3637695</ele>
        <time>2017-03-13T10:31:24Z</time>
      </trkpt>
      <trkpt lat="44.57965" lon="-0.1658">
        <ele>19.8443604</ele>
        <time>2017-03-13T10:31:48Z</time>
      </trkpt>
      <trkpt lat="44.57951" lon="-0.16535">
        <ele>18.8830566</ele>
        <time>2017-03-13T10:32:16Z</time>
      </trkpt>
      <trkpt lat="44.57946" lon="-0.16525">
        <ele>19.8443604</ele>
        <time>2017-03-13T10:32:23Z</time>
      </trkpt>
      <trkpt lat="44.57924" lon="-0.16499">
        <ele>18.8830566</ele>
        <time>2017-03-13T10:32:47Z</time>
      </trkpt>
      <trkpt lat="44.57921" lon="-0.16491">
        <ele>18.8830566</ele>
        <time>2017-03-13T10:32:53Z</time>
      </trkpt>
      <trkpt lat="44.57929" lon="-0.16462">
        <ele>18.8830566</ele>
        <time>2017-03-13T10:33:13Z</time>
      </trkpt>
      <trkpt lat="44.57936" lon="-0.16423">
        <ele>19.8443604</ele>
        <time>2017-03-13T10:33:37Z</time>
      </trkpt>
      <trkpt lat="44.57943" lon="-0.16385">
        <ele>20.3249512</ele>
        <time>2017-03-13T10:34:01Z</time>
      </trkpt>
      <trkpt lat="44.57949" lon="-0.16343">
        <ele>20.8056641</ele>
        <time>2017-03-13T10:34:26Z</time>
      </trkpt>
      <trkpt lat="44.57959" lon="-0.16291">
        <ele>22.2475586</ele>
        <time>2017-03-13T10:34:58Z</time>
      </trkpt>
      <trkpt lat="44.57968" lon="-0.16245">
        <ele>23.2089844</ele>
        <time>2017-03-13T10:35:26Z</time>
      </trkpt>
      <trkpt lat="44.57976" lon="-0.16197">
        <ele>23.2089844</ele>
        <time>2017-03-13T10:35:55Z</time>
      </trkpt>
      <trkpt lat="44.57976" lon="-0.16191">
        <ele>23.2089844</ele>
        <time>2017-03-13T10:35:59Z</time>
      </trkpt>
      <trkpt lat="44.57971" lon="-0.16184">
        <ele>23.2089844</ele>
        <time>2017-03-13T10:36:11Z</time>
      </trkpt>
      <trkpt lat="44.57952" lon="-0.16184">
        <ele>23.2089844</ele>
        <time>2017-03-13T10:36:28Z</time>
      </trkpt>
      <trkpt lat="44.57921" lon="-0.16179">
        <ele>22.2475586</ele>
        <time>2017-03-13T10:36:53Z</time>
      </trkpt>
      <trkpt lat="44.5789" lon="-0.16172">
        <ele>22.2475586</ele>
        <time>2017-03-13T10:37:18Z</time>
      </trkpt>
      <trkpt lat="44.57858" lon="-0.16163">
        <ele>22.2475586</ele>
        <time>2017-03-13T10:37:45Z</time>
      </trkpt>
      <trkpt lat="44.57823" lon="-0.16155">
        <ele>21.286377</ele>
        <time>2017-03-13T10:38:13Z</time>
      </trkpt>
      <trkpt lat="44.57792" lon="-0.16147">
        <ele>21.286377</ele>
        <time>2017-03-13T10:38:39Z</time>
      </trkpt>
      <trkpt lat="44.57766" lon="-0.16149">
        <ele>21.286377</ele>
        <time>2017-03-13T10:39:01Z</time>
      </trkpt>
      <trkpt lat="44.57735" lon="-0.16151">
        <ele>20.8056641</ele>
        <time>2017-03-13T10:39:26Z</time>
      </trkpt>
      <trkpt lat="44.57705" lon="-0.16153">
        <ele>19.8443604</ele>
        <time>2017-03-13T10:39:49Z</time>
      </trkpt>
      <trkpt lat="44.5767" lon="-0.16156">
        <ele>20.8056641</ele>
        <time>2017-03-13T10:40:15Z</time>
      </trkpt>
      <trkpt lat="44.57635" lon="-0.16161">
        <ele>20.8056641</ele>
        <time>2017-03-13T10:40:42Z</time>
      </trkpt>
      <trkpt lat="44.57632" lon="-0.16161">
        <ele>19.3637695</ele>
        <time>2017-03-13T10:40:45Z</time>
      </trkpt>
      <trkpt lat="44.57607" lon="-0.16163">
        <ele>19.3637695</ele>
        <time>2017-03-13T10:41:05Z</time>
      </trkpt>
      <trkpt lat="44.57584" lon="-0.16162">
        <ele>19.8443604</ele>
        <time>2017-03-13T10:41:25Z</time>
      </trkpt>
      <trkpt lat="44.57563" lon="-0.16158">
        <ele>19.8443604</ele>
        <time>2017-03-13T10:41:43Z</time>
      </trkpt>
      <trkpt lat="44.57557" lon="-0.16167">
        <ele>20.3249512</ele>
        <time>2017-03-13T10:42:02Z</time>
      </trkpt>
      <trkpt lat="44.57548" lon="-0.16174">
        <ele>20.3249512</ele>
        <time>2017-03-13T10:42:26Z</time>
      </trkpt>
      <trkpt lat="44.57546" lon="-0.16188">
        <ele>19.8443604</ele>
        <time>2017-03-13T10:42:36Z</time>
      </trkpt>
      <trkpt lat="44.57546" lon="-0.16201">
        <ele>19.8443604</ele>
        <time>2017-03-13T10:42:51Z</time>
      </trkpt>
      <trkpt lat="44.57543" lon="-0.16231">
        <ele>19.3637695</ele>
        <time>2017-03-13T10:43:10Z</time>
      </trkpt>
      <trkpt lat="44.57538" lon="-0.16269">
        <ele>19.3637695</ele>
        <time>2017-03-13T10:43:33Z</time>
      </trkpt>
      <trkpt lat="44.57536" lon="-0.16294">
        <ele>18.8830566</ele>
        <time>2017-03-13T10:43:49Z</time>
      </trkpt>
      <trkpt lat="44.57527" lon="-0.16303">
        <ele>18.8830566</ele>
        <time>2017-03-13T10:44:02Z</time>
      </trkpt>
      <trkpt lat="44.57515" lon="-0.16323">
        <ele>18.8830566</ele>
        <time>2017-03-13T10:44:22Z</time>
      </trkpt>
      <trkpt lat="44.57514" lon="-0.16323">
        <ele>18.8830566</ele>
        <time>2017-03-13T10:44:23Z</time>
      </trkpt>
      <trkpt lat="44.57492" lon="-0.16324">
        <ele>20.3249512</ele>
        <time>2017-03-13T10:44:45Z</time>
      </trkpt>
      <trkpt lat="44.57484" lon="-0.16314">
        <ele>19.8443604</ele>
        <time>2017-03-13T10:45:00Z</time>
      </trkpt>
      <trkpt lat="44.57484" lon="-0.16314">
        <ele>19.8443604</ele>
        <time>2017-03-13T10:45:00Z</time>
      </trkpt>
      <trkpt lat="44.5748" lon="-0.1631">
        <ele>19.8443604</ele>
        <time>2017-03-13T10:46:59Z</time>
      </trkpt>
      <trkpt lat="44.5748" lon="-0.16305">
        <ele>19.8443604</ele>
        <time>2017-03-13T10:56:03Z</time>
      </trkpt>
      <trkpt lat="44.5748" lon="-0.16304">
        <ele>17.9217529</ele>
        <time>2017-03-13T11:02:46Z</time>
      </trkpt>
      <trkpt lat="44.57482" lon="-0.16298">
        <ele>17.9217529</ele>
        <time>2017-03-13T11:03:36Z</time>
      </trkpt>
      <trkpt lat="44.57482" lon="-0.16295">
        <ele>18.4023438</ele>
        <time>2017-03-13T11:03:40Z</time>
      </trkpt>
      <trkpt lat="44.57483" lon="-0.1628">
        <ele>19.8443604</ele>
        <time>2017-03-13T11:05:58Z</time>
      </trkpt>
      <trkpt lat="44.57477" lon="-0.16265">
        <ele>19.3637695</ele>
        <time>2017-03-13T11:06:14Z</time>
      </trkpt>
      <trkpt lat="44.57477" lon="-0.16264">
        <ele>18.8830566</ele>
        <time>2017-03-13T11:06:15Z</time>
      </trkpt>
      <trkpt lat="44.57478" lon="-0.16253">
        <ele>18.8830566</ele>
        <time>2017-03-13T11:06:23Z</time>
      </trkpt>
      <trkpt lat="44.57479" lon="-0.16247">
        <ele>18.8830566</ele>
        <time>2017-03-13T11:06:27Z</time>
      </trkpt>
      <trkpt lat="44.57478" lon="-0.16234">
        <ele>18.4023438</ele>
        <time>2017-03-13T11:06:43Z</time>
      </trkpt>
      <trkpt lat="44.57475" lon="-0.1623">
        <ele>19.3637695</ele>
        <time>2017-03-13T11:06:48Z</time>
      </trkpt>
      <trkpt lat="44.57456" lon="-0.16228">
        <ele>17.4411621</ele>
        <time>2017-03-13T11:07:07Z</time>
      </trkpt>
      <trkpt lat="44.57431" lon="-0.16224">
        <ele>17.4411621</ele>
        <time>2017-03-13T11:07:29Z</time>
      </trkpt>
      <trkpt lat="44.57414" lon="-0.16221">
        <ele>16.9604492</ele>
        <time>2017-03-13T11:07:43Z</time>
      </trkpt>
      <trkpt lat="44.57398" lon="-0.1622">
        <ele>15.9990234</ele>
        <time>2017-03-13T11:07:58Z</time>
      </trkpt>
      <trkpt lat="44.57369" lon="-0.16219">
        <ele>15.0377197</ele>
        <time>2017-03-13T11:08:22Z</time>
      </trkpt>
      <trkpt lat="44.57334" lon="-0.16221">
        <ele>15.5184326</ele>
        <time>2017-03-13T11:08:50Z</time>
      </trkpt>
      <trkpt lat="44.57296" lon="-0.16225">
        <ele>13.5958252</ele>
        <time>2017-03-13T11:09:20Z</time>
      </trkpt>
      <trkpt lat="44.5728" lon="-0.16227">
        <ele>13.1151123</ele>
        <time>2017-03-13T11:09:32Z</time>
      </trkpt>
      <trkpt lat="44.57256" lon="-0.16223">
        <ele>11.6732178</ele>
        <time>2017-03-13T11:09:53Z</time>
      </trkpt>
      <trkpt lat="44.57231" lon="-0.16223">
        <ele>11.1925049</ele>
        <time>2017-03-13T11:10:13Z</time>
      </trkpt>
      <trkpt lat="44.57205" lon="-0.16226">
        <ele>10.2312012</ele>
        <time>2017-03-13T11:10:34Z</time>
      </trkpt>
      <trkpt lat="44.57172" lon="-0.16231">
        <ele>9.7506104</ele>
        <time>2017-03-13T11:11:01Z</time>
      </trkpt>
      <trkpt lat="44.57161" lon="-0.16233">
        <ele>9.7506104</ele>
        <time>2017-03-13T11:11:13Z</time>
      </trkpt>
      <trkpt lat="44.57144" lon="-0.16236">
        <ele>8.7891846</ele>
        <time>2017-03-13T11:11:32Z</time>
      </trkpt>
      <trkpt lat="44.57138" lon="-0.16238">
        <ele>8.7891846</ele>
        <time>2017-03-13T11:11:39Z</time>
      </trkpt>
      <trkpt lat="44.57113" lon="-0.16242">
        <ele>9.2698975</ele>
        <time>2017-03-13T11:12:03Z</time>
      </trkpt>
      <trkpt lat="44.57087" lon="-0.16247">
        <ele>9.7506104</ele>
        <time>2017-03-13T11:12:27Z</time>
      </trkpt>
      <trkpt lat="44.57058" lon="-0.1625">
        <ele>8.7891846</ele>
        <time>2017-03-13T11:12:53Z</time>
      </trkpt>
      <trkpt lat="44.57037" lon="-0.16236">
        <ele>9.2698975</ele>
        <time>2017-03-13T11:13:15Z</time>
      </trkpt>
      <trkpt lat="44.57033" lon="-0.16227">
        <ele>9.2698975</ele>
        <time>2017-03-13T11:13:30Z</time>
      </trkpt>
      <trkpt lat="44.57029" lon="-0.16212">
        <ele>9.2698975</ele>
        <time>2017-03-13T11:13:47Z</time>
      </trkpt>
      <trkpt lat="44.57027" lon="-0.16195">
        <ele>9.2698975</ele>
        <time>2017-03-13T11:14:03Z</time>
      </trkpt>
      <trkpt lat="44.57025" lon="-0.16176">
        <ele>9.2698975</ele>
        <time>2017-03-13T11:14:19Z</time>
      </trkpt>
      <trkpt lat="44.57023" lon="-0.16145">
        <ele>9.7506104</ele>
        <time>2017-03-13T11:14:42Z</time>
      </trkpt>
      <trkpt lat="44.5702" lon="-0.16112">
        <ele>9.2698975</ele>
        <time>2017-03-13T11:15:05Z</time>
      </trkpt>
      <trkpt lat="44.57018" lon="-0.16085">
        <ele>8.3085938</ele>
        <time>2017-03-13T11:15:26Z</time>
      </trkpt>
      <trkpt lat="44.57014" lon="-0.16045">
        <ele>8.7891846</ele>
        <time>2017-03-13T11:15:55Z</time>
      </trkpt>
      <trkpt lat="44.57009" lon="-0.16012">
        <ele>7.8278809</ele>
        <time>2017-03-13T11:16:19Z</time>
      </trkpt>
      <trkpt lat="44.5701" lon="-0.16012">
        <ele>8.7891846</ele>
        <time>2017-03-13T11:16:33Z</time>
      </trkpt>
      <trkpt lat="44.57006" lon="-0.15998">
        <ele>8.3085938</ele>
        <time>2017-03-13T11:16:50Z</time>
      </trkpt>
      <trkpt lat="44.57" lon="-0.15971">
        <ele>8.3085938</ele>
        <time>2017-03-13T11:17:10Z</time>
      </trkpt>
      <trkpt lat="44.56991" lon="-0.15944">
        <ele>7.8278809</ele>
        <time>2017-03-13T11:17:32Z</time>
      </trkpt>
      <trkpt lat="44.56978" lon="-0.15922">
        <ele>7.8278809</ele>
        <time>2017-03-13T11:17:51Z</time>
      </trkpt>
      <trkpt lat="44.56957" lon="-0.15899">
        <ele>7.8278809</ele>
        <time>2017-03-13T11:18:16Z</time>
      </trkpt>
      <trkpt lat="44.56932" lon="-0.15878">
        <ele>7.8278809</ele>
        <time>2017-03-13T11:18:44Z</time>
      </trkpt>
      <trkpt lat="44.56908" lon="-0.1586">
        <ele>8.3085938</ele>
        <time>2017-03-13T11:19:09Z</time>
      </trkpt>
      <trkpt lat="44.56884" lon="-0.15844">
        <ele>7.8278809</ele>
        <time>2017-03-13T11:19:34Z</time>
      </trkpt>
      <trkpt lat="44.56862" lon="-0.15829">
        <ele>7.347168</ele>
        <time>2017-03-13T11:19:58Z</time>
      </trkpt>
      <trkpt lat="44.56843" lon="-0.15816">
        <ele>7.8278809</ele>
        <time>2017-03-13T11:20:18Z</time>
      </trkpt>
      <trkpt lat="44.56817" lon="-0.15799">
        <ele>7.347168</ele>
        <time>2017-03-13T11:20:41Z</time>
      </trkpt>
      <trkpt lat="44.5679" lon="-0.15786">
        <ele>7.8278809</ele>
        <time>2017-03-13T11:21:06Z</time>
      </trkpt>
      <trkpt lat="44.56771" lon="-0.15777">
        <ele>7.8278809</ele>
        <time>2017-03-13T11:21:25Z</time>
      </trkpt>
      <trkpt lat="44.56746" lon="-0.15764">
        <ele>7.8278809</ele>
        <time>2017-03-13T11:21:47Z</time>
      </trkpt>
      <trkpt lat="44.56716" lon="-0.15749">
        <ele>7.8278809</ele>
        <time>2017-03-13T11:22:13Z</time>
      </trkpt>
      <trkpt lat="44.5669" lon="-0.15741">
        <ele>7.347168</ele>
        <time>2017-03-13T11:22:35Z</time>
      </trkpt>
      <trkpt lat="44.56664" lon="-0.15738">
        <ele>7.8278809</ele>
        <time>2017-03-13T11:22:58Z</time>
      </trkpt>
      <trkpt lat="44.56637" lon="-0.15733">
        <ele>9.2698975</ele>
        <time>2017-03-13T11:23:21Z</time>
      </trkpt>
      <trkpt lat="44.56635" lon="-0.15734">
        <ele>9.2698975</ele>
        <time>2017-03-13T11:23:26Z</time>
      </trkpt>
      <trkpt lat="44.56624" lon="-0.15738">
        <ele>9.7506104</ele>
        <time>2017-03-13T11:23:45Z</time>
      </trkpt>
      <trkpt lat="44.5661" lon="-0.15736">
        <ele>10.711792</ele>
        <time>2017-03-13T11:24:00Z</time>
      </trkpt>
      <trkpt lat="44.56593" lon="-0.15736">
        <ele>10.711792</ele>
        <time>2017-03-13T11:24:18Z</time>
      </trkpt>
      <trkpt lat="44.56588" lon="-0.15736">
        <ele>12.1538086</ele>
        <time>2017-03-13T11:24:29Z</time>
      </trkpt>
      <trkpt lat="44.56582" lon="-0.15735">
        <ele>12.1538086</ele>
        <time>2017-03-13T11:24:49Z</time>
      </trkpt>
      <trkpt lat="44.5658" lon="-0.15742">
        <ele>12.1538086</ele>
        <time>2017-03-13T11:25:06Z</time>
      </trkpt>
      <trkpt lat="44.56578" lon="-0.15781">
        <ele>13.5958252</ele>
        <time>2017-03-13T11:25:29Z</time>
      </trkpt>
      <trkpt lat="44.56572" lon="-0.15809">
        <ele>14.076416</ele>
        <time>2017-03-13T11:25:47Z</time>
      </trkpt>
      <trkpt lat="44.56564" lon="-0.15842">
        <ele>15.9990234</ele>
        <time>2017-03-13T11:26:08Z</time>
      </trkpt>
      <trkpt lat="44.56548" lon="-0.15864">
        <ele>15.9990234</ele>
        <time>2017-03-13T11:26:27Z</time>
      </trkpt>
      <trkpt lat="44.56528" lon="-0.15868">
        <ele>15.9990234</ele>
        <time>2017-03-13T11:26:49Z</time>
      </trkpt>
      <trkpt lat="44.56527" lon="-0.15868">
        <ele>15.9990234</ele>
        <time>2017-03-13T11:27:12Z</time>
      </trkpt>
      <trkpt lat="44.56525" lon="-0.15867">
        <ele>15.0377197</ele>
        <time>2017-03-13T11:27:26Z</time>
      </trkpt>
      <trkpt lat="44.56522" lon="-0.15861">
        <ele>15.0377197</ele>
        <time>2017-03-13T11:27:41Z</time>
      </trkpt>
      <trkpt lat="44.56512" lon="-0.15858">
        <ele>15.5184326</ele>
        <time>2017-03-13T11:27:54Z</time>
      </trkpt>
      <trkpt lat="44.56505" lon="-0.15858">
        <ele>15.5184326</ele>
        <time>2017-03-13T11:28:08Z</time>
      </trkpt>
      <trkpt lat="44.56505" lon="-0.15858">
        <ele>15.0377197</ele>
        <time>2017-03-13T11:28:41Z</time>
      </trkpt>
      <trkpt lat="44.56488" lon="-0.15858">
        <ele>15.0377197</ele>
        <time>2017-03-13T11:28:58Z</time>
      </trkpt>
      <trkpt lat="44.56473" lon="-0.15858">
        <ele>15.5184326</ele>
        <time>2017-03-13T11:29:15Z</time>
      </trkpt>
      <trkpt lat="44.56459" lon="-0.15855">
        <ele>15.5184326</ele>
        <time>2017-03-13T11:29:30Z</time>
      </trkpt>
      <trkpt lat="44.56442" lon="-0.15855">
        <ele>15.5184326</ele>
        <time>2017-03-13T11:29:47Z</time>
      </trkpt>
      <trkpt lat="44.56422" lon="-0.15854">
        <ele>15.5184326</ele>
        <time>2017-03-13T11:30:07Z</time>
      </trkpt>
      <trkpt lat="44.56407" lon="-0.15854">
        <ele>15.0377197</ele>
        <time>2017-03-13T11:30:23Z</time>
      </trkpt>
      <trkpt lat="44.56396" lon="-0.1585">
        <ele>14.5570068</ele>
        <time>2017-03-13T11:30:38Z</time>
      </trkpt>
      <trkpt lat="44.56387" lon="-0.15851">
        <ele>14.5570068</ele>
        <time>2017-03-13T11:30:55Z</time>
      </trkpt>
      <trkpt lat="44.56376" lon="-0.15852">
        <ele>14.5570068</ele>
        <time>2017-03-13T11:31:15Z</time>
      </trkpt>
      <trkpt lat="44.56362" lon="-0.1585">
        <ele>14.5570068</ele>
        <time>2017-03-13T11:31:32Z</time>
      </trkpt>
      <trkpt lat="44.56351" lon="-0.1585">
        <ele>14.5570068</ele>
        <time>2017-03-13T11:31:46Z</time>
      </trkpt>
      <trkpt lat="44.56334" lon="-0.1585">
        <ele>14.076416</ele>
        <time>2017-03-13T11:32:01Z</time>
      </trkpt>
      <trkpt lat="44.56318" lon="-0.15845">
        <ele>15.9990234</ele>
      </trkpt>
      <trkpt lat="44.56316" lon="-0.15831">
        <ele>11.6732178</ele>
      </trkpt>
      <trkpt lat="44.56312" lon="-0.15811">
        <ele>11.6732178</ele>
      </trkpt>
      <trkpt lat="44.56313" lon="-0.15803">
        <ele>11.6732178</ele>
      </trkpt>
      <trkpt lat="44.56313" lon="-0.15799">
        <ele>11.6732178</ele>
      </trkpt>
      <trkpt lat="44.56314" lon="-0.15789">
        <ele>12.1538086</ele>
      </trkpt>
      <trkpt lat="44.56313" lon="-0.15764">
        <ele>12.6343994</ele>
      </trkpt>
      <trkpt lat="44.56313" lon="-0.15762">
        <ele>12.6343994</ele>
      </trkpt>
      <trkpt lat="44.56309" lon="-0.15727">
        <ele>13.5958252</ele>
      </trkpt>
      <trkpt lat="44.56306" lon="-0.15715">
        <ele>13.5958252</ele>
      </trkpt>
      <trkpt lat="44.56301" lon="-0.15703">
        <ele>14.076416</ele>
      </trkpt>
      <trkpt lat="44.56299" lon="-0.15681">
        <ele>14.076416</ele>
      </trkpt>
      <trkpt lat="44.56298" lon="-0.15677">
        <ele>14.5570068</ele>
      </trkpt>
      <trkpt lat="44.56297" lon="-0.15673">
        <ele>14.076416</ele>
      </trkpt>
      <trkpt lat="44.56287" lon="-0.15642">
        <ele>15.9990234</ele>
      </trkpt>
      <trkpt lat="44.56278" lon="-0.15629">
        <ele>16.4797363</ele>
      </trkpt>
      <trkpt lat="44.56267" lon="-0.15625">
        <ele>16.9604492</ele>
      </trkpt>
      <trkpt lat="44.56254" lon="-0.1562">
        <ele>17.9217529</ele>
      </trkpt>
      <trkpt lat="44.56252" lon="-0.15619">
        <ele>18.4023438</ele>
      </trkpt>
      <trkpt lat="44.5624" lon="-0.15616">
        <ele>18.8830566</ele>
      </trkpt>
      <trkpt lat="44.56226" lon="-0.15613">
        <ele>19.8443604</ele>
      </trkpt>
      <trkpt lat="44.56225" lon="-0.1561">
        <ele>19.8443604</ele>
      </trkpt>
      <trkpt lat="44.56216" lon="-0.15598">
        <ele>20.3249512</ele>
      </trkpt>
      <trkpt lat="44.56205" lon="-0.15584">
        <ele>21.7669678</ele>
      </trkpt>
      <trkpt lat="44.56203" lon="-0.15559">
        <ele>21.7669678</ele>
      </trkpt>
      <trkpt lat="44.56203" lon="-0.1555">
        <ele>22.2475586</ele>
      </trkpt>
      <trkpt lat="44.56198" lon="-0.15532">
        <ele>33.3028564</ele>
      </trkpt>
      <trkpt lat="44.55994" lon="-0.1551">
        <ele>35.2254639</ele>
      </trkpt>
      <trkpt lat="44.55972" lon="-0.15486">
        <ele>35.0390625</ele>
      </trkpt>
      <trkpt lat="44.55958" lon="-0.15457">
        <ele>35.8242188</ele>
      </trkpt>
      <trkpt lat="44.55942" lon="-0.15442">
        <ele>36.1867676</ele>
        <time>2017-03-13T12:41:16Z</time>
      </trkpt>
      <trkpt lat="44.55922" lon="-0.15442">
        <ele>36.6674805</ele>
        <time>2017-03-13T12:41:34Z</time>
      </trkpt>
      <trkpt lat="44.55902" lon="-0.15442">
        <ele>36.6674805</ele>
        <time>2017-03-13T12:41:52Z</time>
      </trkpt>
      <trkpt lat="44.55875" lon="-0.15446">
        <ele>36.1867676</ele>
        <time>2017-03-13T12:42:15Z</time>
      </trkpt>
      <trkpt lat="44.55844" lon="-0.15454">
        <ele>36.1867676</ele>
        <time>2017-03-13T12:42:42Z</time>
      </trkpt>
      <trkpt lat="44.55829" lon="-0.15461">
        <ele>36.1867676</ele>
        <time>2017-03-13T12:42:57Z</time>
      </trkpt>
      <trkpt lat="44.55808" lon="-0.15465">
        <ele>37.1480713</ele>
        <time>2017-03-13T12:43:16Z</time>
      </trkpt>
      <trkpt lat="44.55777" lon="-0.15476">
        <ele>38.109375</ele>
        <time>2017-03-13T12:43:43Z</time>
      </trkpt>
      <trkpt lat="44.55762" lon="-0.15481">
        <ele>38.5900879</ele>
        <time>2017-03-13T12:43:59Z</time>
      </trkpt>
      <trkpt lat="44.55731" lon="-0.15486">
        <ele>38.5900879</ele>
        <time>2017-03-13T12:44:23Z</time>
      </trkpt>
      <trkpt lat="44.55698" lon="-0.15486">
        <ele>39.5512695</ele>
        <time>2017-03-13T12:44:50Z</time>
      </trkpt>
      <trkpt lat="44.55662" lon="-0.15488">
        <ele>40.0321045</ele>
        <time>2017-03-13T12:45:20Z</time>
      </trkpt>
      <trkpt lat="44.55658" lon="-0.15488">
        <ele>40.5128174</ele>
        <time>2017-03-13T12:45:24Z</time>
      </trkpt>
      <trkpt lat="44.55653" lon="-0.15487">
        <ele>40.5128174</ele>
        <time>2017-03-13T12:45:28Z</time>
      </trkpt>
      <trkpt lat="44.55623" lon="-0.15492">
        <ele>40.0321045</ele>
        <time>2017-03-13T12:45:54Z</time>
      </trkpt>
      <trkpt lat="44.55592" lon="-0.15495">
        <ele>40.0321045</ele>
        <time>2017-03-13T12:46:21Z</time>
      </trkpt>
      <trkpt lat="44.55569" lon="-0.15502">
        <ele>39.5512695</ele>
        <time>2017-03-13T12:46:42Z</time>
      </trkpt>
      <trkpt lat="44.55532" lon="-0.15512">
        <ele>39.5512695</ele>
        <time>2017-03-13T12:47:12Z</time>
      </trkpt>
      <trkpt lat="44.55503" lon="-0.15521">
        <ele>39.0706787</ele>
        <time>2017-03-13T12:47:37Z</time>
      </trkpt>
      <trkpt lat="44.55474" lon="-0.15529">
        <ele>38.109375</ele>
        <time>2017-03-13T12:48:01Z</time>
      </trkpt>
      <trkpt lat="44.55445" lon="-0.15538">
        <ele>37.6286621</ele>
        <time>2017-03-13T12:48:26Z</time>
      </trkpt>
      <trkpt lat="44.55407" lon="-0.15549">
        <ele>36.6674805</ele>
        <time>2017-03-13T12:48:58Z</time>
      </trkpt>
      <trkpt lat="44.55374" lon="-0.15559">
        <ele>36.1867676</ele>
        <time>2017-03-13T12:49:26Z</time>
      </trkpt>
      <trkpt lat="44.55343" lon="-0.15569">
        <ele>34.744873</ele>
        <time>2017-03-13T12:49:53Z</time>
      </trkpt>
      <trkpt lat="44.55309" lon="-0.15573">
        <ele>32.8222656</ele>
        <time>2017-03-13T12:50:21Z</time>
      </trkpt>
      <trkpt lat="44.55277" lon="-0.15569">
        <ele>30.4188232</ele>
        <time>2017-03-13T12:50:48Z</time>
      </trkpt>
      <trkpt lat="44.55239" lon="-0.15563">
        <ele>28.0155029</ele>
        <time>2017-03-13T12:51:19Z</time>
      </trkpt>
      <trkpt lat="44.55208" lon="-0.15552">
        <ele>26.0928955</ele>
        <time>2017-03-13T12:51:47Z</time>
      </trkpt>
      <trkpt lat="44.5518" lon="-0.15535">
        <ele>23.2089844</ele>
        <time>2017-03-13T12:52:14Z</time>
      </trkpt>
      <trkpt lat="44.55151" lon="-0.15519">
        <ele>21.286377</ele>
        <time>2017-03-13T12:52:40Z</time>
      </trkpt>
      <trkpt lat="44.55121" lon="-0.15503">
        <ele>18.8830566</ele>
        <time>2017-03-13T12:53:07Z</time>
      </trkpt>
      <trkpt lat="44.55087" lon="-0.15486">
        <ele>17.4411621</ele>
        <time>2017-03-13T12:53:37Z</time>
      </trkpt>
      <trkpt lat="44.5506" lon="-0.15469">
        <ele>16.9604492</ele>
        <time>2017-03-13T12:54:02Z</time>
      </trkpt>
      <trkpt lat="44.55031" lon="-0.15457">
        <ele>17.4411621</ele>
        <time>2017-03-13T12:54:27Z</time>
      </trkpt>
      <trkpt lat="44.55011" lon="-0.1544">
        <ele>16.9604492</ele>
        <time>2017-03-13T12:54:47Z</time>
      </trkpt>
      <trkpt lat="44.54996" lon="-0.15419">
        <ele>15.5184326</ele>
        <time>2017-03-13T12:55:07Z</time>
      </trkpt>
      <trkpt lat="44.54975" lon="-0.1539">
        <ele>15.5184326</ele>
        <time>2017-03-13T12:55:32Z</time>
      </trkpt>
      <trkpt lat="44.54957" lon="-0.1537">
        <ele>15.0377197</ele>
        <time>2017-03-13T12:55:52Z</time>
      </trkpt>
      <trkpt lat="44.54927" lon="-0.15359">
        <ele>15.5184326</ele>
        <time>2017-03-13T12:56:16Z</time>
      </trkpt>
      <trkpt lat="44.54902" lon="-0.15359">
        <ele>15.0377197</ele>
        <time>2017-03-13T12:56:36Z</time>
      </trkpt>
      <trkpt lat="44.54871" lon="-0.15365">
        <ele>15.0377197</ele>
        <time>2017-03-13T12:57:03Z</time>
      </trkpt>
      <trkpt lat="44.5484" lon="-0.15373">
        <ele>15.5184326</ele>
        <time>2017-03-13T12:57:30Z</time>
      </trkpt>
      <trkpt lat="44.5481" lon="-0.15378">
        <ele>15.0377197</ele>
        <time>2017-03-13T12:57:56Z</time>
      </trkpt>
      <trkpt lat="44.54787" lon="-0.1538">
        <ele>15.5184326</ele>
        <time>2017-03-13T12:58:15Z</time>
      </trkpt>
      <trkpt lat="44.54767" lon="-0.15374">
        <ele>15.0377197</ele>
        <time>2017-03-13T12:58:32Z</time>
      </trkpt>
      <trkpt lat="44.54741" lon="-0.15362">
        <ele>15.5184326</ele>
        <time>2017-03-13T12:58:55Z</time>
      </trkpt>
      <trkpt lat="44.54721" lon="-0.15351">
        <ele>14.5570068</ele>
        <time>2017-03-13T12:59:15Z</time>
      </trkpt>
      <trkpt lat="44.54714" lon="-0.15349">
        <ele>14.5570068</ele>
        <time>2017-03-13T12:59:21Z</time>
      </trkpt>
      <trkpt lat="44.54689" lon="-0.1533">
        <ele>14.5570068</ele>
        <time>2017-03-13T12:59:44Z</time>
      </trkpt>
      <trkpt lat="44.54668" lon="-0.15313">
        <ele>14.5570068</ele>
        <time>2017-03-13T13:00:05Z</time>
      </trkpt>
      <trkpt lat="44.54641" lon="-0.15301">
        <ele>15.0377197</ele>
        <time>2017-03-13T13:00:28Z</time>
      </trkpt>
      <trkpt lat="44.54613" lon="-0.15301">
        <ele>15.0377197</ele>
        <time>2017-03-13T13:00:52Z</time>
      </trkpt>
      <trkpt lat="44.54594" lon="-0.15301">
        <ele>15.5184326</ele>
        <time>2017-03-13T13:01:10Z</time>
      </trkpt>
      <trkpt lat="44.54569" lon="-0.15301">
        <ele>15.5184326</ele>
        <time>2017-03-13T13:01:31Z</time>
      </trkpt>
      <trkpt lat="44.54543" lon="-0.15299">
        <ele>15.9990234</ele>
        <time>2017-03-13T13:01:54Z</time>
      </trkpt>
      <trkpt lat="44.54526" lon="-0.15295">
        <ele>15.9990234</ele>
        <time>2017-03-13T13:02:15Z</time>
      </trkpt>
      <trkpt lat="44.54526" lon="-0.15293">
        <ele>16.9604492</ele>
        <time>2017-03-13T13:03:07Z</time>
      </trkpt>
      <trkpt lat="44.54527" lon="-0.15293">
        <ele>15.5184326</ele>
        <time>2017-03-13T13:03:29Z</time>
      </trkpt>
      <trkpt lat="44.54526" lon="-0.15294">
        <ele>16.4797363</ele>
        <time>2017-03-13T13:03:49Z</time>
      </trkpt>
      <trkpt lat="44.54522" lon="-0.15295">
        <ele>15.5184326</ele>
        <time>2017-03-13T13:04:34Z</time>
      </trkpt>
      <trkpt lat="44.54505" lon="-0.15293">
        <ele>15.9990234</ele>
        <time>2017-03-13T13:04:53Z</time>
      </trkpt>
      <trkpt lat="44.5449" lon="-0.15293">
        <ele>15.9990234</ele>
        <time>2017-03-13T13:05:08Z</time>
      </trkpt>
      <trkpt lat="44.5447" lon="-0.15295">
        <ele>16.4797363</ele>
        <time>2017-03-13T13:05:26Z</time>
      </trkpt>
      <trkpt lat="44.54446" lon="-0.15294">
        <ele>16.9604492</ele>
        <time>2017-03-13T13:05:47Z</time>
      </trkpt>
      <trkpt lat="44.54428" lon="-0.15293">
        <ele>17.9217529</ele>
        <time>2017-03-13T13:06:05Z</time>
      </trkpt>
      <trkpt lat="44.54411" lon="-0.15294">
        <ele>18.4023438</ele>
        <time>2017-03-13T13:06:21Z</time>
      </trkpt>
      <trkpt lat="44.54385" lon="-0.15295">
        <ele>17.9217529</ele>
        <time>2017-03-13T13:06:41Z</time>
      </trkpt>
      <trkpt lat="44.54366" lon="-0.15297">
        <ele>17.9217529</ele>
        <time>2017-03-13T13:06:59Z</time>
      </trkpt>
      <trkpt lat="44.54335" lon="-0.15294">
        <ele>16.9604492</ele>
        <time>2017-03-13T13:07:22Z</time>
      </trkpt>
      <trkpt lat="44.54314" lon="-0.15293">
        <ele>16.4797363</ele>
        <time>2017-03-13T13:07:40Z</time>
      </trkpt>
      <trkpt lat="44.54288" lon="-0.15292">
        <ele>16.4797363</ele>
        <time>2017-03-13T13:07:59Z</time>
      </trkpt>
      <trkpt lat="44.54264" lon="-0.15296">
        <ele>16.9604492</ele>
        <time>2017-03-13T13:08:20Z</time>
      </trkpt>
      <trkpt lat="44.5424" lon="-0.15303">
        <ele>17.4411621</ele>
        <time>2017-03-13T13:08:41Z</time>
      </trkpt>
      <trkpt lat="44.54216" lon="-0.15304">
        <ele>17.4411621</ele>
        <time>2017-03-13T13:09:01Z</time>
      </trkpt>
      <trkpt lat="44.54184" lon="-0.15302">
        <ele>17.9217529</ele>
        <time>2017-03-13T13:09:27Z</time>
      </trkpt>
      <trkpt lat="44.54159" lon="-0.15293">
        <ele>18.4023438</ele>
        <time>2017-03-13T13:09:50Z</time>
      </trkpt>
      <trkpt lat="44.54136" lon="-0.15282">
        <ele>18.4023438</ele>
        <time>2017-03-13T13:10:14Z</time>
      </trkpt>
      <trkpt lat="44.54117" lon="-0.15274">
        <ele>18.4023438</ele>
        <time>2017-03-13T13:10:32Z</time>
      </trkpt>
      <trkpt lat="44.541" lon="-0.15272">
        <ele>16.9604492</ele>
        <time>2017-03-13T13:10:49Z</time>
      </trkpt>
      <trkpt lat="44.54087" lon="-0.15272">
        <ele>16.9604492</ele>
        <time>2017-03-13T13:11:02Z</time>
      </trkpt>
      <trkpt lat="44.54059" lon="-0.15271">
        <ele>15.9990234</ele>
        <time>2017-03-13T13:11:24Z</time>
      </trkpt>
      <trkpt lat="44.54037" lon="-0.15266">
        <ele>15.0377197</ele>
        <time>2017-03-13T13:11:43Z</time>
      </trkpt>
      <trkpt lat="44.54004" lon="-0.1526">
        <ele>15.0377197</ele>
        <time>2017-03-13T13:12:08Z</time>
      </trkpt>
      <trkpt lat="44.53986" lon="-0.15255">
        <ele>15.0377197</ele>
        <time>2017-03-13T13:12:25Z</time>
      </trkpt>
      <trkpt lat="44.53964" lon="-0.15255">
        <ele>15.9990234</ele>
        <time>2017-03-13T13:12:47Z</time>
      </trkpt>
      <trkpt lat="44.53947" lon="-0.15263">
        <ele>15.9990234</ele>
        <time>2017-03-13T13:13:08Z</time>
      </trkpt>
      <trkpt lat="44.5393" lon="-0.15274">
        <ele>15.0377197</ele>
        <time>2017-03-13T13:13:27Z</time>
      </trkpt>
      <trkpt lat="44.53927" lon="-0.15275">
        <ele>15.5184326</ele>
        <time>2017-03-13T13:13:30Z</time>
      </trkpt>
      <trkpt lat="44.53901" lon="-0.1528">
        <ele>15.5184326</ele>
        <time>2017-03-13T13:13:54Z</time>
      </trkpt>
      <trkpt lat="44.53877" lon="-0.15282">
        <ele>15.9990234</ele>
        <time>2017-03-13T13:14:15Z</time>
      </trkpt>
      <trkpt lat="44.53859" lon="-0.15284">
        <ele>16.4797363</ele>
        <time>2017-03-13T13:14:31Z</time>
      </trkpt>
      <trkpt lat="44.53846" lon="-0.15287">
        <ele>17.9217529</ele>
        <time>2017-03-13T13:14:46Z</time>
      </trkpt>
      <trkpt lat="44.53837" lon="-0.15286">
        <ele>18.4023438</ele>
        <time>2017-03-13T13:14:57Z</time>
      </trkpt>
      <trkpt lat="44.53831" lon="-0.15276">
        <ele>19.8443604</ele>
        <time>2017-03-13T13:15:17Z</time>
      </trkpt>
      <trkpt lat="44.5382" lon="-0.15265">
        <ele>20.8056641</ele>
        <time>2017-03-13T13:15:33Z</time>
      </trkpt>
      <trkpt lat="44.53803" lon="-0.15252">
        <ele>20.8056641</ele>
        <time>2017-03-13T13:15:52Z</time>
      </trkpt>
      <trkpt lat="44.53797" lon="-0.15249">
        <ele>20.8056641</ele>
        <time>2017-03-13T13:15:57Z</time>
      </trkpt>
      <trkpt lat="44.53777" lon="-0.15232">
        <ele>22.2475586</ele>
        <time>2017-03-13T13:16:18Z</time>
      </trkpt>
      <trkpt lat="44.53762" lon="-0.15213">
        <ele>23.2089844</ele>
        <time>2017-03-13T13:16:36Z</time>
      </trkpt>
      <trkpt lat="44.53753" lon="-0.15197">
        <ele>23.6895752</ele>
        <time>2017-03-13T13:16:49Z</time>
      </trkpt>
      <trkpt lat="44.53741" lon="-0.15172">
        <ele>26.0928955</ele>
        <time>2017-03-13T13:17:09Z</time>
      </trkpt>
      <trkpt lat="44.53732" lon="-0.15151">
        <ele>27.0543213</ele>
        <time>2017-03-13T13:17:25Z</time>
      </trkpt>
      <trkpt lat="44.5372" lon="-0.15127">
        <ele>28.4962158</ele>
        <time>2017-03-13T13:17:43Z</time>
      </trkpt>
      <trkpt lat="44.53706" lon="-0.15099">
        <ele>29.4575195</ele>
        <time>2017-03-13T13:18:05Z</time>
      </trkpt>
      <trkpt lat="44.5369" lon="-0.15075">
        <ele>30.4188232</ele>
        <time>2017-03-13T13:18:26Z</time>
      </trkpt>
      <trkpt lat="44.53673" lon="-0.15057">
        <ele>31.8607178</ele>
        <time>2017-03-13T13:18:45Z</time>
      </trkpt>
      <trkpt lat="44.53653" lon="-0.15041">
        <ele>33.7834473</ele>
        <time>2017-03-13T13:19:05Z</time>
      </trkpt>
      <trkpt lat="44.53651" lon="-0.15039">
        <ele>33.7834473</ele>
        <time>2017-03-13T13:19:07Z</time>
      </trkpt>
      <trkpt lat="44.53644" lon="-0.15031">
        <ele>33.7834473</ele>
        <time>2017-03-13T13:19:23Z</time>
      </trkpt>
      <trkpt lat="44.53634" lon="-0.15014">
        <ele>34.744873</ele>
        <time>2017-03-13T13:19:38Z</time>
      </trkpt>
      <trkpt lat="44.53617" lon="-0.14983">
        <ele>34.744873</ele>
        <time>2017-03-13T13:20:00Z</time>
      </trkpt>
      <trkpt lat="44.53611" lon="-0.14975">
        <ele>35.7060547</ele>
        <time>2017-03-13T13:20:06Z</time>
      </trkpt>
      <trkpt lat="44.53597" lon="-0.14947">
        <ele>36.1867676</ele>
        <time>2017-03-13T13:20:26Z</time>
      </trkpt>
      <trkpt lat="44.53584" lon="-0.14922">
        <ele>36.1867676</ele>
        <time>2017-03-13T13:20:44Z</time>
      </trkpt>
      <trkpt lat="44.53574" lon="-0.14903">
        <ele>36.6674805</ele>
        <time>2017-03-13T13:20:58Z</time>
      </trkpt>
      <trkpt lat="44.53559" lon="-0.14873">
        <ele>36.6674805</ele>
        <time>2017-03-13T13:21:19Z</time>
      </trkpt>
      <trkpt lat="44.53548" lon="-0.14846">
        <ele>36.1867676</ele>
        <time>2017-03-13T13:21:37Z</time>
      </trkpt>
      <trkpt lat="44.53538" lon="-0.14819">
        <ele>36.1867676</ele>
        <time>2017-03-13T13:21:54Z</time>
      </trkpt>
      <trkpt lat="44.53529" lon="-0.14785">
        <ele>37.6286621</ele>
        <time>2017-03-13T13:22:14Z</time>
      </trkpt>
      <trkpt lat="44.53524" lon="-0.14755">
        <ele>36.6674805</ele>
        <time>2017-03-13T13:22:31Z</time>
      </trkpt>
      <trkpt lat="44.53521" lon="-0.14726">
        <ele>37.6286621</ele>
        <time>2017-03-13T13:22:48Z</time>
      </trkpt>
      <trkpt lat="44.53522" lon="-0.14692">
        <ele>39.5512695</ele>
        <time>2017-03-13T13:23:08Z</time>
      </trkpt>
      <trkpt lat="44.5353" lon="-0.14657">
        <ele>40.9934082</ele>
        <time>2017-03-13T13:23:30Z</time>
      </trkpt>
      <trkpt lat="44.53535" lon="-0.1463">
        <ele>40.9934082</ele>
        <time>2017-03-13T13:23:47Z</time>
      </trkpt>
      <trkpt lat="44.53538" lon="-0.14596">
        <ele>41.9547119</ele>
        <time>2017-03-13T13:24:06Z</time>
      </trkpt>
      <trkpt lat="44.53536" lon="-0.14558">
        <ele>42.9160156</ele>
        <time>2017-03-13T13:24:28Z</time>
      </trkpt>
      <trkpt lat="44.53528" lon="-0.14522">
        <ele>41.9547119</ele>
        <time>2017-03-13T13:24:50Z</time>
      </trkpt>
      <trkpt lat="44.53516" lon="-0.14479">
        <ele>43.8773193</ele>
        <time>2017-03-13T13:25:16Z</time>
      </trkpt>
      <trkpt lat="44.53506" lon="-0.14448">
        <ele>45.3192139</ele>
        <time>2017-03-13T13:25:38Z</time>
      </trkpt>
      <trkpt lat="44.53483" lon="-0.14415">
        <ele>46.2806396</ele>
        <time>2017-03-13T13:26:05Z</time>
      </trkpt>
      <trkpt lat="44.53456" lon="-0.14391">
        <ele>47.7225342</ele>
        <time>2017-03-13T13:26:30Z</time>
      </trkpt>
      <trkpt lat="44.53446" lon="-0.14384">
        <ele>48.68396</ele>
        <time>2017-03-13T13:26:40Z</time>
      </trkpt>
      <trkpt lat="44.53443" lon="-0.14383">
        <ele>47.7225342</ele>
        <time>2017-03-13T13:26:42Z</time>
      </trkpt>
      <trkpt lat="44.53438" lon="-0.14384">
        <ele>48.2033691</ele>
        <time>2017-03-13T13:26:50Z</time>
      </trkpt>
      <trkpt lat="44.53421" lon="-0.14409">
        <ele>47.7225342</ele>
        <time>2017-03-13T13:27:12Z</time>
      </trkpt>
      <trkpt lat="44.53398" lon="-0.14428">
        <ele>49.1645508</ele>
        <time>2017-03-13T13:27:34Z</time>
      </trkpt>
      <trkpt lat="44.53365" lon="-0.14452">
        <ele>47.7225342</ele>
        <time>2017-03-13T13:28:04Z</time>
      </trkpt>
      <trkpt lat="44.53359" lon="-0.14458">
        <ele>47.2418213</ele>
        <time>2017-03-13T13:28:10Z</time>
      </trkpt>
      <trkpt lat="44.53355" lon="-0.14461">
        <ele>47.2418213</ele>
        <time>2017-03-13T13:28:14Z</time>
      </trkpt>
      <trkpt lat="44.53329" lon="-0.14485">
        <ele>47.7225342</ele>
        <time>2017-03-13T13:28:40Z</time>
      </trkpt>
      <trkpt lat="44.53307" lon="-0.14508">
        <ele>48.68396</ele>
        <time>2017-03-13T13:29:06Z</time>
      </trkpt>
      <trkpt lat="44.53307" lon="-0.14507">
        <ele>44.838623</ele>
        <time>2017-03-13T13:29:07Z</time>
      </trkpt>
      <trkpt lat="44.53307" lon="-0.14507">
        <ele>48.2033691</ele>
        <time>2017-03-13T13:29:08Z</time>
      </trkpt>
      <trkpt lat="44.53306" lon="-0.14509">
        <ele>48.68396</ele>
        <time>2017-03-13T13:29:35Z</time>
      </trkpt>
      <trkpt lat="44.5329" lon="-0.1453">
        <ele>48.68396</ele>
        <time>2017-03-13T13:29:55Z</time>
      </trkpt>
      <trkpt lat="44.5327" lon="-0.14544">
        <ele>48.68396</ele>
        <time>2017-03-13T13:30:15Z</time>
      </trkpt>
      <trkpt lat="44.53241" lon="-0.14557">
        <ele>49.1645508</ele>
        <time>2017-03-13T13:30:41Z</time>
      </trkpt>
      <trkpt lat="44.5321" lon="-0.14563">
        <ele>50.6065674</ele>
        <time>2017-03-13T13:31:06Z</time>
      </trkpt>
      <trkpt lat="44.53178" lon="-0.14567">
        <ele>52.048584</ele>
        <time>2017-03-13T13:31:31Z</time>
      </trkpt>
      <trkpt lat="44.53153" lon="-0.1457">
        <ele>53.0097656</ele>
        <time>2017-03-13T13:31:50Z</time>
      </trkpt>
      <trkpt lat="44.53125" lon="-0.14575">
        <ele>54.4517822</ele>
        <time>2017-03-13T13:32:10Z</time>
      </trkpt>
      <trkpt lat="44.53094" lon="-0.1458">
        <ele>54.932373</ele>
        <time>2017-03-13T13:32:34Z</time>
      </trkpt>
      <trkpt lat="44.53066" lon="-0.14585">
        <ele>55.8937988</ele>
        <time>2017-03-13T13:32:58Z</time>
      </trkpt>
      <trkpt lat="44.53039" lon="-0.14588">
        <ele>54.932373</ele>
        <time>2017-03-13T13:33:20Z</time>
      </trkpt>
      <trkpt lat="44.53014" lon="-0.14592">
        <ele>53.9711914</ele>
        <time>2017-03-13T13:33:42Z</time>
      </trkpt>
      <trkpt lat="44.52986" lon="-0.14602">
        <ele>52.5291748</ele>
        <time>2017-03-13T13:34:04Z</time>
      </trkpt>
      <trkpt lat="44.52955" lon="-0.1462">
        <ele>51.0871582</ele>
        <time>2017-03-13T13:34:30Z</time>
      </trkpt>
      <trkpt lat="44.52932" lon="-0.1464">
        <ele>50.1259766</ele>
        <time>2017-03-13T13:34:50Z</time>
      </trkpt>
      <trkpt lat="44.52899" lon="-0.14674">
        <ele>48.68396</ele>
        <time>2017-03-13T13:35:22Z</time>
      </trkpt>
      <trkpt lat="44.52871" lon="-0.14694">
        <ele>47.7225342</ele>
        <time>2017-03-13T13:35:48Z</time>
      </trkpt>
      <trkpt lat="44.52857" lon="-0.14701">
        <ele>48.68396</ele>
        <time>2017-03-13T13:36:00Z</time>
      </trkpt>
      <trkpt lat="44.52844" lon="-0.14705">
        <ele>47.2418213</ele>
        <time>2017-03-13T13:36:10Z</time>
      </trkpt>
      <trkpt lat="44.52811" lon="-0.14716">
        <ele>47.2418213</ele>
        <time>2017-03-13T13:36:36Z</time>
      </trkpt>
      <trkpt lat="44.52782" lon="-0.14724">
        <ele>47.7225342</ele>
        <time>2017-03-13T13:36:59Z</time>
      </trkpt>
      <trkpt lat="44.52751" lon="-0.14734">
        <ele>48.68396</ele>
        <time>2017-03-13T13:37:24Z</time>
      </trkpt>
      <trkpt lat="44.52723" lon="-0.14741">
        <ele>48.2033691</ele>
        <time>2017-03-13T13:37:46Z</time>
      </trkpt>
      <trkpt lat="44.52685" lon="-0.14737">
        <ele>48.68396</ele>
        <time>2017-03-13T13:38:15Z</time>
      </trkpt>
      <trkpt lat="44.52654" lon="-0.14727">
        <ele>48.68396</ele>
        <time>2017-03-13T13:38:40Z</time>
      </trkpt>
      <trkpt lat="44.5262" lon="-0.14718">
        <ele>47.7225342</ele>
        <time>2017-03-13T13:39:07Z</time>
      </trkpt>
      <trkpt lat="44.52581" lon="-0.14725">
        <ele>48.68396</ele>
        <time>2017-03-13T13:39:37Z</time>
      </trkpt>
      <trkpt lat="44.52578" lon="-0.14726">
        <ele>44.838623</ele>
        <time>2017-03-13T13:39:40Z</time>
      </trkpt>
      <trkpt lat="44.52575" lon="-0.14728">
        <ele>50.1259766</ele>
        <time>2017-03-13T13:39:42Z</time>
      </trkpt>
      <trkpt lat="44.52574" lon="-0.14728">
        <ele>46.2806396</ele>
        <time>2017-03-13T13:39:43Z</time>
      </trkpt>
      <trkpt lat="44.52573" lon="-0.14729">
        <ele>50.6065674</ele>
        <time>2017-03-13T13:39:44Z</time>
      </trkpt>
      <trkpt lat="44.52571" lon="-0.1473">
        <ele>45.3192139</ele>
        <time>2017-03-13T13:39:46Z</time>
      </trkpt>
      <trkpt lat="44.5257" lon="-0.1473">
        <ele>47.2418213</ele>
        <time>2017-03-13T13:39:47Z</time>
      </trkpt>
      <trkpt lat="44.52567" lon="-0.14731">
        <ele>48.2033691</ele>
        <time>2017-03-13T13:39:49Z</time>
      </trkpt>
      <trkpt lat="44.52565" lon="-0.14733">
        <ele>47.2418213</ele>
        <time>2017-03-13T13:39:51Z</time>
      </trkpt>
      <trkpt lat="44.52554" lon="-0.14738">
        <ele>48.68396</ele>
        <time>2017-03-13T13:40:00Z</time>
      </trkpt>
      <trkpt lat="44.5252" lon="-0.14752">
        <ele>46.7612305</ele>
        <time>2017-03-13T13:40:27Z</time>
      </trkpt>
      <trkpt lat="44.52496" lon="-0.14762">
        <ele>45.7999268</ele>
        <time>2017-03-13T13:40:46Z</time>
      </trkpt>
      <trkpt lat="44.52464" lon="-0.14774">
        <ele>45.3192139</ele>
        <time>2017-03-13T13:41:12Z</time>
      </trkpt>
      <trkpt lat="44.52457" lon="-0.14776">
        <ele>44.838623</ele>
        <time>2017-03-13T13:41:31Z</time>
      </trkpt>
      <trkpt lat="44.52451" lon="-0.1478">
        <ele>43.8773193</ele>
        <time>2017-03-13T13:42:47Z</time>
      </trkpt>
      <trkpt lat="44.52427" lon="-0.14782">
        <ele>42.9160156</ele>
        <time>2017-03-13T13:43:09Z</time>
      </trkpt>
      <trkpt lat="44.52399" lon="-0.14785">
        <ele>41.9547119</ele>
        <time>2017-03-13T13:43:33Z</time>
      </trkpt>
      <trkpt lat="44.52379" lon="-0.14785">
        <ele>42.9160156</ele>
        <time>2017-03-13T13:43:51Z</time>
      </trkpt>
      <trkpt lat="44.52359" lon="-0.14791">
        <ele>42.4354248</ele>
        <time>2017-03-13T13:44:07Z</time>
      </trkpt>
      <trkpt lat="44.52338" lon="-0.14801">
        <ele>42.4354248</ele>
        <time>2017-03-13T13:44:26Z</time>
      </trkpt>
      <trkpt lat="44.52314" lon="-0.14828">
        <ele>41.9547119</ele>
        <time>2017-03-13T13:44:47Z</time>
      </trkpt>
      <trkpt lat="44.52302" lon="-0.14854">
        <ele>40.9934082</ele>
        <time>2017-03-13T13:45:04Z</time>
      </trkpt>
      <trkpt lat="44.52291" lon="-0.14878">
        <ele>38.5900879</ele>
        <time>2017-03-13T13:45:21Z</time>
      </trkpt>
      <trkpt lat="44.52287" lon="-0.14889">
        <ele>38.109375</ele>
        <time>2017-03-13T13:45:36Z</time>
      </trkpt>
      <trkpt lat="44.52281" lon="-0.149">
        <ele>37.1480713</ele>
        <time>2017-03-13T13:45:49Z</time>
      </trkpt>
      <trkpt lat="44.5228" lon="-0.14902">
        <ele>37.6286621</ele>
        <time>2017-03-13T13:45:51Z</time>
      </trkpt>
      <trkpt lat="44.5227" lon="-0.14911">
        <ele>36.1867676</ele>
        <time>2017-03-13T13:46:03Z</time>
      </trkpt>
      <trkpt lat="44.52239" lon="-0.14914">
        <ele>33.7834473</ele>
        <time>2017-03-13T13:46:28Z</time>
      </trkpt>
      <trkpt lat="44.52205" lon="-0.14906">
        <ele>32.8222656</ele>
        <time>2017-03-13T13:46:53Z</time>
      </trkpt>
      <trkpt lat="44.52176" lon="-0.14896">
        <ele>33.3028564</ele>
        <time>2017-03-13T13:47:17Z</time>
      </trkpt>
      <trkpt lat="44.52163" lon="-0.14918">
        <ele>35.7060547</ele>
        <time>2017-03-13T13:47:36Z</time>
      </trkpt>
      <trkpt lat="44.52159" lon="-0.14943">
        <ele>38.5900879</ele>
        <time>2017-03-13T13:47:53Z</time>
      </trkpt>
      <trkpt lat="44.52157" lon="-0.14949">
        <ele>38.109375</ele>
        <time>2017-03-13T13:47:57Z</time>
      </trkpt>
      <trkpt lat="44.52146" lon="-0.14978">
        <ele>41.473999</ele>
        <time>2017-03-13T13:48:16Z</time>
      </trkpt>
      <trkpt lat="44.52144" lon="-0.14981">
        <ele>41.9547119</ele>
        <time>2017-03-13T13:48:18Z</time>
      </trkpt>
      <trkpt lat="44.52135" lon="-0.15018">
        <ele>43.8773193</ele>
        <time>2017-03-13T13:48:38Z</time>
      </trkpt>
      <trkpt lat="44.52132" lon="-0.15066">
        <ele>44.3580322</ele>
        <time>2017-03-13T13:49:03Z</time>
      </trkpt>
      <trkpt lat="44.52134" lon="-0.15123">
        <ele>42.9160156</ele>
        <time>2017-03-13T13:49:32Z</time>
      </trkpt>
      <trkpt lat="44.52137" lon="-0.15187">
        <ele>42.9160156</ele>
        <time>2017-03-13T13:50:04Z</time>
      </trkpt>
      <trkpt lat="44.52134" lon="-0.15235">
        <ele>42.9160156</ele>
        <time>2017-03-13T13:50:28Z</time>
      </trkpt>
      <trkpt lat="44.52114" lon="-0.15258">
        <ele>43.3966064</ele>
        <time>2017-03-13T13:50:47Z</time>
      </trkpt>
      <trkpt lat="44.52096" lon="-0.15272">
        <ele>43.8773193</ele>
        <time>2017-03-13T13:51:02Z</time>
      </trkpt>
      <trkpt lat="44.52089" lon="-0.15277">
        <ele>43.8773193</ele>
        <time>2017-03-13T14:00:17Z</time>
      </trkpt>
      <trkpt lat="44.52072" lon="-0.15292">
        <ele>43.8773193</ele>
        <time>2017-03-13T14:00:39Z</time>
      </trkpt>
      <trkpt lat="44.52058" lon="-0.15303">
        <ele>43.8773193</ele>
        <time>2017-03-13T14:00:58Z</time>
      </trkpt>
      <trkpt lat="44.52053" lon="-0.15305">
        <ele>43.3966064</ele>
        <time>2017-03-13T14:01:21Z</time>
      </trkpt>
      <trkpt lat="44.52045" lon="-0.1531">
        <ele>42.9160156</ele>
        <time>2017-03-13T14:01:32Z</time>
      </trkpt>
      <trkpt lat="44.52025" lon="-0.15323">
        <ele>44.838623</ele>
        <time>2017-03-13T14:01:53Z</time>
      </trkpt>
      <trkpt lat="44.52001" lon="-0.15336">
        <ele>44.838623</ele>
        <time>2017-03-13T14:02:17Z</time>
      </trkpt>
      <trkpt lat="44.51989" lon="-0.1536">
        <ele>45.3192139</ele>
        <time>2017-03-13T14:02:38Z</time>
      </trkpt>
      <trkpt lat="44.51997" lon="-0.15394">
        <ele>45.3192139</ele>
        <time>2017-03-13T14:03:00Z</time>
      </trkpt>
      <trkpt lat="44.52004" lon="-0.15421">
        <ele>44.838623</ele>
        <time>2017-03-13T14:03:19Z</time>
      </trkpt>
      <trkpt lat="44.52012" lon="-0.15452">
        <ele>44.3580322</ele>
        <time>2017-03-13T14:03:42Z</time>
      </trkpt>
      <trkpt lat="44.5202" lon="-0.15485">
        <ele>45.3192139</ele>
        <time>2017-03-13T14:04:06Z</time>
      </trkpt>
      <trkpt lat="44.52028" lon="-0.1552">
        <ele>45.3192139</ele>
        <time>2017-03-13T14:04:29Z</time>
      </trkpt>
      <trkpt lat="44.52034" lon="-0.15564">
        <ele>45.3192139</ele>
        <time>2017-03-13T14:04:53Z</time>
      </trkpt>
      <trkpt lat="44.5204" lon="-0.15594">
        <ele>46.2806396</ele>
        <time>2017-03-13T14:05:12Z</time>
      </trkpt>
      <trkpt lat="44.52048" lon="-0.15624">
        <ele>46.7612305</ele>
        <time>2017-03-13T14:05:34Z</time>
      </trkpt>
      <trkpt lat="44.52056" lon="-0.15656">
        <ele>45.7999268</ele>
        <time>2017-03-13T14:05:56Z</time>
      </trkpt>
      <trkpt lat="44.52061" lon="-0.1567">
        <ele>45.7999268</ele>
        <time>2017-03-13T14:06:07Z</time>
      </trkpt>
      <trkpt lat="44.52064" lon="-0.15693">
        <ele>46.2806396</ele>
        <time>2017-03-13T14:06:22Z</time>
      </trkpt>
      <trkpt lat="44.52072" lon="-0.15724">
        <ele>45.7999268</ele>
        <time>2017-03-13T14:06:42Z</time>
      </trkpt>
      <trkpt lat="44.52082" lon="-0.15764">
        <ele>44.838623</ele>
        <time>2017-03-13T14:07:08Z</time>
      </trkpt>
      <trkpt lat="44.52091" lon="-0.15802">
        <ele>45.3192139</ele>
        <time>2017-03-13T14:07:32Z</time>
      </trkpt>
      <trkpt lat="44.52095" lon="-0.1581">
        <ele>44.3580322</ele>
        <time>2017-03-13T14:07:38Z</time>
      </trkpt>
      <trkpt lat="44.52103" lon="-0.15852">
        <ele>43.8773193</ele>
        <time>2017-03-13T14:08:04Z</time>
      </trkpt>
      <trkpt lat="44.52114" lon="-0.15891">
        <ele>41.9547119</ele>
        <time>2017-03-13T14:08:31Z</time>
      </trkpt>
      <trkpt lat="44.52124" lon="-0.15921">
        <ele>39.5512695</ele>
        <time>2017-03-13T14:08:52Z</time>
      </trkpt>
      <trkpt lat="44.52131" lon="-0.15946">
        <ele>37.6286621</ele>
        <time>2017-03-13T14:09:11Z</time>
      </trkpt>
      <trkpt lat="44.52135" lon="-0.15962">
        <ele>36.1867676</ele>
        <time>2017-03-13T14:09:22Z</time>
      </trkpt>
      <trkpt lat="44.52138" lon="-0.15993">
        <ele>33.3028564</ele>
        <time>2017-03-13T14:09:43Z</time>
      </trkpt>
      <trkpt lat="44.5214" lon="-0.16023">
        <ele>29.9381104</ele>
        <time>2017-03-13T14:10:04Z</time>
      </trkpt>
      <trkpt lat="44.52141" lon="-0.16041">
        <ele>28.0155029</ele>
        <time>2017-03-13T14:10:22Z</time>
      </trkpt>
      <trkpt lat="44.52141" lon="-0.16047">
        <ele>27.5349121</ele>
        <time>2017-03-13T14:10:39Z</time>
      </trkpt>
      <trkpt lat="44.52143" lon="-0.16072">
        <ele>24.651001</ele>
        <time>2017-03-13T14:10:58Z</time>
      </trkpt>
      <trkpt lat="44.52143" lon="-0.16109">
        <ele>21.7669678</ele>
        <time>2017-03-13T14:11:22Z</time>
      </trkpt>
      <trkpt lat="44.52135" lon="-0.16146">
        <ele>21.7669678</ele>
        <time>2017-03-13T14:11:45Z</time>
      </trkpt>
      <trkpt lat="44.52124" lon="-0.16179">
        <ele>18.8830566</ele>
        <time>2017-03-13T14:12:09Z</time>
      </trkpt>
      <trkpt lat="44.52112" lon="-0.16218">
        <ele>17.9217529</ele>
        <time>2017-03-13T14:12:35Z</time>
      </trkpt>
      <trkpt lat="44.52105" lon="-0.16243">
        <ele>17.4411621</ele>
        <time>2017-03-13T14:12:53Z</time>
      </trkpt>
      <trkpt lat="44.52098" lon="-0.16291">
        <ele>16.9604492</ele>
        <time>2017-03-13T14:13:20Z</time>
      </trkpt>
      <trkpt lat="44.52092" lon="-0.16328">
        <ele>17.9217529</ele>
        <time>2017-03-13T14:13:43Z</time>
      </trkpt>
      <trkpt lat="44.52087" lon="-0.1636">
        <ele>17.9217529</ele>
        <time>2017-03-13T14:14:03Z</time>
      </trkpt>
      <trkpt lat="44.52077" lon="-0.16388">
        <ele>17.4411621</ele>
        <time>2017-03-13T14:14:23Z</time>
      </trkpt>
      <trkpt lat="44.5205" lon="-0.16408">
        <ele>17.9217529</ele>
        <time>2017-03-13T14:14:45Z</time>
      </trkpt>
      <trkpt lat="44.5203" lon="-0.16408">
        <ele>18.8830566</ele>
        <time>2017-03-13T14:15:05Z</time>
      </trkpt>
      <trkpt lat="44.52006" lon="-0.16408">
        <ele>20.8056641</ele>
        <time>2017-03-13T14:15:26Z</time>
      </trkpt>
      <trkpt lat="44.51996" lon="-0.16409">
        <ele>21.7669678</ele>
        <time>2017-03-13T14:15:34Z</time>
      </trkpt>
      <trkpt lat="44.51972" lon="-0.16406">
        <ele>23.6895752</ele>
        <time>2017-03-13T14:15:53Z</time>
      </trkpt>
      <trkpt lat="44.51958" lon="-0.16404">
        <ele>25.6123047</ele>
        <time>2017-03-13T14:16:04Z</time>
      </trkpt>
      <trkpt lat="44.51956" lon="-0.16404">
        <ele>26.5736084</ele>
        <time>2017-03-13T14:16:06Z</time>
      </trkpt>
      <trkpt lat="44.51937" lon="-0.16399">
        <ele>28.0155029</ele>
        <time>2017-03-13T14:16:21Z</time>
      </trkpt>
      <trkpt lat="44.51921" lon="-0.164">
        <ele>28.9769287</ele>
        <time>2017-03-13T14:16:38Z</time>
      </trkpt>
      <trkpt lat="44.51919" lon="-0.16415">
        <ele>29.9381104</ele>
        <time>2017-03-13T14:16:55Z</time>
      </trkpt>
      <trkpt lat="44.51918" lon="-0.16436">
        <ele>32.3415527</ele>
        <time>2017-03-13T14:17:12Z</time>
      </trkpt>
      <trkpt lat="44.51912" lon="-0.16451">
        <ele>33.3028564</ele>
        <time>2017-03-13T14:17:26Z</time>
      </trkpt>
      <trkpt lat="44.51907" lon="-0.16461">
        <ele>33.7834473</ele>
        <time>2017-03-13T14:17:34Z</time>
      </trkpt>
      <trkpt lat="44.51895" lon="-0.16482">
        <ele>35.7060547</ele>
        <time>2017-03-13T14:17:52Z</time>
      </trkpt>
      <trkpt lat="44.51885" lon="-0.165">
        <ele>36.6674805</ele>
        <time>2017-03-13T14:18:09Z</time>
      </trkpt>
      <trkpt lat="44.51878" lon="-0.165">
        <ele>37.1480713</ele>
        <time>2017-03-13T14:18:25Z</time>
      </trkpt>
      <trkpt lat="44.51879" lon="-0.16506">
        <ele>37.6286621</ele>
        <time>2017-03-13T14:19:01Z</time>
      </trkpt>
      <trkpt lat="44.51869" lon="-0.16508">
        <ele>37.6286621</ele>
        <time>2017-03-13T14:19:16Z</time>
      </trkpt>
      <trkpt lat="44.51864" lon="-0.16507">
        <ele>37.6286621</ele>
        <time>2017-03-13T14:19:21Z</time>
      </trkpt>
      <trkpt lat="44.51858" lon="-0.16505">
        <ele>37.6286621</ele>
        <time>2017-03-13T14:19:26Z</time>
      </trkpt>
      <trkpt lat="44.51842" lon="-0.16502">
        <ele>37.1480713</ele>
        <time>2017-03-13T14:19:46Z</time>
      </trkpt>
      <trkpt lat="44.51839" lon="-0.165">
        <ele>37.6286621</ele>
        <time>2017-03-13T14:20:02Z</time>
      </trkpt>
      <trkpt lat="44.51827" lon="-0.16499">
        <ele>36.1867676</ele>
        <time>2017-03-13T14:20:21Z</time>
      </trkpt>
      <trkpt lat="44.51827" lon="-0.165">
        <ele>36.6674805</ele>
        <time>2017-03-13T14:20:36Z</time>
      </trkpt>
      <trkpt lat="44.51816" lon="-0.16502">
        <ele>36.1867676</ele>
        <time>2017-03-13T14:21:10Z</time>
      </trkpt>
    </trkseg>
  </trk>
</gpx>